<?xml version="1.0" encoding="utf-8"?>
<gpx xmlns:xsi="http://www.w3.org/2001/XMLSchema-instance" xmlns:xsd="http://www.w3.org/2001/XMLSchema" version="1.1" creator="Shapelink.com" xmlns="http://www.topografix.com/GPX/1/1" xmlns:gpxtpx="http://www.garmin.com/xmlschemas/TrackPointExtension/v1">
  <metadata>
    <name>Walking 8.67 km, 2012-08-05</name>
    <desc></desc>
    <author><name>Ulf Andrae</name></author> 
    <time>2012-08-05T12:09:06Z</time>
  </metadata>
  <trk>
    <name>Walking 8.67 km, 2012-08-05</name>
    <trkseg>
      <trkpt lat="61.6715282947" lon="8.71729957871">
        <ele>1312.82</ele>
        <time>2012-08-05T12:09:06Z</time>
      </trkpt>
      <trkpt lat="61.67153324" lon="8.71727870777">
        <ele>1309.45</ele>
        <time>2012-08-05T12:09:16Z</time>
      </trkpt>
      <trkpt lat="61.6715652589" lon="8.71729144827">
        <ele>1306.57</ele>
        <time>2012-08-05T12:09:32Z</time>
      </trkpt>
      <trkpt lat="61.6715992894" lon="8.71727904305">
        <ele>1305.13</ele>
        <time>2012-08-05T12:09:44Z</time>
      </trkpt>
      <trkpt lat="61.6715909913" lon="8.71728155762">
        <ele>1305.61</ele>
        <time>2012-08-05T12:09:58Z</time>
      </trkpt>
      <trkpt lat="61.6715923324" lon="8.71727719903">
        <ele>1305.61</ele>
        <time>2012-08-05T12:10:14Z</time>
      </trkpt>
      <trkpt lat="61.6715677734" lon="8.71726571582">
        <ele>1305.13</ele>
        <time>2012-08-05T12:10:30Z</time>
      </trkpt>
      <trkpt lat="61.6715914104" lon="8.71727317572">
        <ele>1305.61</ele>
        <time>2012-08-05T12:10:55Z</time>
      </trkpt>
      <trkpt lat="61.6714654304" lon="8.71722590178">
        <ele>1305.13</ele>
        <time>2012-08-05T12:11:08Z</time>
      </trkpt>
      <trkpt lat="61.6713766661" lon="8.71717887931">
        <ele>1305.13</ele>
        <time>2012-08-05T12:11:20Z</time>
      </trkpt>
      <trkpt lat="61.6713433899" lon="8.71716312133">
        <ele>1305.61</ele>
        <time>2012-08-05T12:11:30Z</time>
      </trkpt>
      <trkpt lat="61.671327129" lon="8.71682390571">
        <ele>1305.61</ele>
        <time>2012-08-05T12:11:45Z</time>
      </trkpt>
      <trkpt lat="61.6713295598" lon="8.7167036254">
        <ele>1305.61</ele>
        <time>2012-08-05T12:11:50Z</time>
      </trkpt>
      <trkpt lat="61.6713224351" lon="8.71656599455">
        <ele>1305.61</ele>
        <time>2012-08-05T12:11:56Z</time>
      </trkpt>
      <trkpt lat="61.6712788492" lon="8.71612125076">
        <ele>1305.13</ele>
        <time>2012-08-05T12:12:15Z</time>
      </trkpt>
      <trkpt lat="61.6712744068" lon="8.71607766487">
        <ele>1305.13</ele>
        <time>2012-08-05T12:12:17Z</time>
      </trkpt>
      <trkpt lat="61.6712684557" lon="8.71601404622">
        <ele>1305.61</ele>
        <time>2012-08-05T12:12:25Z</time>
      </trkpt>
      <trkpt lat="61.671232665" lon="8.71590139344">
        <ele>1306.09</ele>
        <time>2012-08-05T12:12:32Z</time>
      </trkpt>
      <trkpt lat="61.6712008975" lon="8.7157558836">
        <ele>1306.09</ele>
        <time>2012-08-05T12:12:40Z</time>
      </trkpt>
      <trkpt lat="61.6711772606" lon="8.71565178037">
        <ele>1306.57</ele>
        <time>2012-08-05T12:12:47Z</time>
      </trkpt>
      <trkpt lat="61.6711222753" lon="8.7153352797">
        <ele>1307.53</ele>
        <time>2012-08-05T12:13:01Z</time>
      </trkpt>
      <trkpt lat="61.6710958723" lon="8.7150269933">
        <ele>1307.53</ele>
        <time>2012-08-05T12:13:14Z</time>
      </trkpt>
      <trkpt lat="61.6710476764" lon="8.71464989148">
        <ele>1307.53</ele>
        <time>2012-08-05T12:13:31Z</time>
      </trkpt>
      <trkpt lat="61.6710258834" lon="8.71451754123">
        <ele>1307.05</ele>
        <time>2012-08-05T12:13:41Z</time>
      </trkpt>
      <trkpt lat="61.6708952934" lon="8.7141289562">
        <ele>1308.49</ele>
        <time>2012-08-05T12:13:58Z</time>
      </trkpt>
      <trkpt lat="61.6707729176" lon="8.71377700008">
        <ele>1308.49</ele>
        <time>2012-08-05T12:14:15Z</time>
      </trkpt>
      <trkpt lat="61.6707193572" lon="8.71365127154">
        <ele>1308.97</ele>
        <time>2012-08-05T12:14:22Z</time>
      </trkpt>
      <trkpt lat="61.6706057824" lon="8.71331540868">
        <ele>1309.93</ele>
        <time>2012-08-05T12:14:38Z</time>
      </trkpt>
      <trkpt lat="61.6705288365" lon="8.71298876591">
        <ele>1310.9</ele>
        <time>2012-08-05T12:14:54Z</time>
      </trkpt>
      <trkpt lat="61.6704529803" lon="8.71259900741">
        <ele>1310.41</ele>
        <time>2012-08-05T12:15:09Z</time>
      </trkpt>
      <trkpt lat="61.6703264136" lon="8.71229943819">
        <ele>1309.93</ele>
        <time>2012-08-05T12:15:25Z</time>
      </trkpt>
      <trkpt lat="61.6701823287" lon="8.71204680763">
        <ele>1310.9</ele>
        <time>2012-08-05T12:15:42Z</time>
      </trkpt>
      <trkpt lat="61.6701591946" lon="8.71201269329">
        <ele>1309.93</ele>
        <time>2012-08-05T12:15:45Z</time>
      </trkpt>
      <trkpt lat="61.6700889543" lon="8.71192191727">
        <ele>1310.41</ele>
        <time>2012-08-05T12:15:52Z</time>
      </trkpt>
      <trkpt lat="61.6700597852" lon="8.71181437746">
        <ele>1310.41</ele>
        <time>2012-08-05T12:15:56Z</time>
      </trkpt>
      <trkpt lat="61.6699421871" lon="8.71151095256">
        <ele>1309.93</ele>
        <time>2012-08-05T12:16:12Z</time>
      </trkpt>
      <trkpt lat="61.6698594578" lon="8.71138723567">
        <ele>1310.9</ele>
        <time>2012-08-05T12:16:26Z</time>
      </trkpt>
      <trkpt lat="61.66972409" lon="8.71111339889">
        <ele>1311.38</ele>
        <time>2012-08-05T12:16:40Z</time>
      </trkpt>
      <trkpt lat="61.6696113534" lon="8.71087786742">
        <ele>1310.9</ele>
        <time>2012-08-05T12:16:54Z</time>
      </trkpt>
      <trkpt lat="61.6694796737" lon="8.71062372811">
        <ele>1310.9</ele>
        <time>2012-08-05T12:17:08Z</time>
      </trkpt>
      <trkpt lat="61.6693433002" lon="8.71028157882">
        <ele>1311.38</ele>
        <time>2012-08-05T12:17:23Z</time>
      </trkpt>
      <trkpt lat="61.6691626702" lon="8.71017638594">
        <ele>1310.41</ele>
        <time>2012-08-05T12:17:38Z</time>
      </trkpt>
      <trkpt lat="61.6689938586" lon="8.71014629491">
        <ele>1309.93</ele>
        <time>2012-08-05T12:17:53Z</time>
      </trkpt>
      <trkpt lat="61.668832507" lon="8.71006415226">
        <ele>1310.41</ele>
        <time>2012-08-05T12:18:06Z</time>
      </trkpt>
      <trkpt lat="61.6688201018" lon="8.71005040593">
        <ele>1310.41</ele>
        <time>2012-08-05T12:18:07Z</time>
      </trkpt>
      <trkpt lat="61.6688064393" lon="8.71004185639">
        <ele>1310.41</ele>
        <time>2012-08-05T12:18:08Z</time>
      </trkpt>
      <trkpt lat="61.6686160862" lon="8.7098287046">
        <ele>1310.41</ele>
        <time>2012-08-05T12:18:25Z</time>
      </trkpt>
      <trkpt lat="61.6685051098" lon="8.70971102268">
        <ele>1310.41</ele>
        <time>2012-08-05T12:18:36Z</time>
      </trkpt>
      <trkpt lat="61.6683450155" lon="8.70959040709">
        <ele>1310.9</ele>
        <time>2012-08-05T12:18:50Z</time>
      </trkpt>
      <trkpt lat="61.6683476977" lon="8.70952511206">
        <ele>1311.38</ele>
        <time>2012-08-05T12:18:58Z</time>
      </trkpt>
      <trkpt lat="61.6683428362" lon="8.7095164787">
        <ele>1310.9</ele>
        <time>2012-08-05T12:18:59Z</time>
      </trkpt>
      <trkpt lat="61.6682258248" lon="8.7093992997">
        <ele>1311.86</ele>
        <time>2012-08-05T12:19:12Z</time>
      </trkpt>
      <trkpt lat="61.668193806" lon="8.70936485007">
        <ele>1312.34</ele>
        <time>2012-08-05T12:19:15Z</time>
      </trkpt>
      <trkpt lat="61.6681798082" lon="8.7093455717">
        <ele>1312.34</ele>
        <time>2012-08-05T12:19:16Z</time>
      </trkpt>
      <trkpt lat="61.6681655589" lon="8.70932403021">
        <ele>1312.34</ele>
        <time>2012-08-05T12:19:17Z</time>
      </trkpt>
      <trkpt lat="61.6681605298" lon="8.70930223726">
        <ele>1312.34</ele>
        <time>2012-08-05T12:19:18Z</time>
      </trkpt>
      <trkpt lat="61.6681506392" lon="8.70927264914">
        <ele>1312.34</ele>
        <time>2012-08-05T12:19:19Z</time>
      </trkpt>
      <trkpt lat="61.6681426764" lon="8.70925094001">
        <ele>1312.82</ele>
        <time>2012-08-05T12:19:20Z</time>
      </trkpt>
      <trkpt lat="61.6680674907" lon="8.7089434918">
        <ele>1312.34</ele>
        <time>2012-08-05T12:19:35Z</time>
      </trkpt>
      <trkpt lat="61.6679444443" lon="8.70860050432">
        <ele>1312.82</ele>
        <time>2012-08-05T12:19:51Z</time>
      </trkpt>
      <trkpt lat="61.6677943245" lon="8.70834200643">
        <ele>1314.26</ele>
        <time>2012-08-05T12:20:07Z</time>
      </trkpt>
      <trkpt lat="61.6677332204" lon="8.7080622185">
        <ele>1314.26</ele>
        <time>2012-08-05T12:20:20Z</time>
      </trkpt>
      <trkpt lat="61.6676684283" lon="8.70772811584">
        <ele>1313.78</ele>
        <time>2012-08-05T12:20:34Z</time>
      </trkpt>
      <trkpt lat="61.6676025465" lon="8.70740407147">
        <ele>1314.26</ele>
        <time>2012-08-05T12:20:48Z</time>
      </trkpt>
      <trkpt lat="61.6675869562" lon="8.70735520497">
        <ele>1313.78</ele>
        <time>2012-08-05T12:21:05Z</time>
      </trkpt>
      <trkpt lat="61.6675797477" lon="8.70735294186">
        <ele>1313.78</ele>
        <time>2012-08-05T12:21:07Z</time>
      </trkpt>
      <trkpt lat="61.6675784905" lon="8.70745251887">
        <ele>1314.26</ele>
        <time>2012-08-05T12:21:20Z</time>
      </trkpt>
      <trkpt lat="61.6675841063" lon="8.70747498237">
        <ele>1314.74</ele>
        <time>2012-08-05T12:21:53Z</time>
      </trkpt>
      <trkpt lat="61.6675831005" lon="8.70744707063">
        <ele>1314.26</ele>
        <time>2012-08-05T12:22:16Z</time>
      </trkpt>
      <trkpt lat="61.6675882135" lon="8.7074183207">
        <ele>1314.74</ele>
        <time>2012-08-05T12:22:50Z</time>
      </trkpt>
      <trkpt lat="61.66758704" lon="8.7074046582">
        <ele>1314.26</ele>
        <time>2012-08-05T12:23:20Z</time>
      </trkpt>
      <trkpt lat="61.6675717011" lon="8.70742242783">
        <ele>1314.74</ele>
        <time>2012-08-05T12:23:46Z</time>
      </trkpt>
      <trkpt lat="61.6675840225" lon="8.70737984776">
        <ele>1314.74</ele>
        <time>2012-08-05T12:24:09Z</time>
      </trkpt>
      <trkpt lat="61.6675750539" lon="8.70738781057">
        <ele>1314.74</ele>
        <time>2012-08-05T12:24:27Z</time>
      </trkpt>
      <trkpt lat="61.6675829329" lon="8.70734539814">
        <ele>1314.74</ele>
        <time>2012-08-05T12:24:43Z</time>
      </trkpt>
      <trkpt lat="61.6675676778" lon="8.70724456385">
        <ele>1314.74</ele>
        <time>2012-08-05T12:24:49Z</time>
      </trkpt>
      <trkpt lat="61.6675622296" lon="8.70722461492">
        <ele>1315.22</ele>
        <time>2012-08-05T12:24:50Z</time>
      </trkpt>
      <trkpt lat="61.667485619" lon="8.70692982338">
        <ele>1316.18</ele>
        <time>2012-08-05T12:25:04Z</time>
      </trkpt>
      <trkpt lat="61.6674725432" lon="8.70683745481">
        <ele>1315.7</ele>
        <time>2012-08-05T12:25:09Z</time>
      </trkpt>
      <trkpt lat="61.6674700286" lon="8.70681524277">
        <ele>1315.22</ele>
        <time>2012-08-05T12:25:10Z</time>
      </trkpt>
      <trkpt lat="61.6674679331" lon="8.70679051615">
        <ele>1316.18</ele>
        <time>2012-08-05T12:25:11Z</time>
      </trkpt>
      <trkpt lat="61.6674413625" lon="8.70650243014">
        <ele>1316.18</ele>
        <time>2012-08-05T12:25:23Z</time>
      </trkpt>
      <trkpt lat="61.6674232576" lon="8.70630604215">
        <ele>1316.66</ele>
        <time>2012-08-05T12:25:31Z</time>
      </trkpt>
      <trkpt lat="61.6674181446" lon="8.70620311238">
        <ele>1316.66</ele>
        <time>2012-08-05T12:25:36Z</time>
      </trkpt>
      <trkpt lat="61.6674210783" lon="8.70615701191">
        <ele>1316.18</ele>
        <time>2012-08-05T12:25:38Z</time>
      </trkpt>
      <trkpt lat="61.6674157977" lon="8.70604083873">
        <ele>1316.18</ele>
        <time>2012-08-05T12:25:43Z</time>
      </trkpt>
      <trkpt lat="61.6674166359" lon="8.70601803996">
        <ele>1316.18</ele>
        <time>2012-08-05T12:25:44Z</time>
      </trkpt>
      <trkpt lat="61.6673582979" lon="8.70565040968">
        <ele>1316.66</ele>
        <time>2012-08-05T12:25:59Z</time>
      </trkpt>
      <trkpt lat="61.6672696173" lon="8.7054166384">
        <ele>1316.66</ele>
        <time>2012-08-05T12:26:12Z</time>
      </trkpt>
      <trkpt lat="61.6672396939" lon="8.70528018102">
        <ele>1317.14</ele>
        <time>2012-08-05T12:26:24Z</time>
      </trkpt>
      <trkpt lat="61.6672253609" lon="8.70528512634">
        <ele>1317.62</ele>
        <time>2012-08-05T12:26:34Z</time>
      </trkpt>
      <trkpt lat="61.6672177333" lon="8.70526869781">
        <ele>1317.14</ele>
        <time>2012-08-05T12:26:35Z</time>
      </trkpt>
      <trkpt lat="61.6671256162" lon="8.70491875336">
        <ele>1317.62</ele>
        <time>2012-08-05T12:26:58Z</time>
      </trkpt>
      <trkpt lat="61.6671191622" lon="8.70492948219">
        <ele>1317.14</ele>
        <time>2012-08-05T12:27:22Z</time>
      </trkpt>
      <trkpt lat="61.6670106165" lon="8.7046670448">
        <ele>1318.1</ele>
        <time>2012-08-05T12:27:38Z</time>
      </trkpt>
      <trkpt lat="61.6669448186" lon="8.70440150611">
        <ele>1317.14</ele>
        <time>2012-08-05T12:27:51Z</time>
      </trkpt>
      <trkpt lat="61.6668873187" lon="8.70412498713">
        <ele>1316.18</ele>
        <time>2012-08-05T12:28:04Z</time>
      </trkpt>
      <trkpt lat="61.6668504383" lon="8.70405156165">
        <ele>1316.66</ele>
        <time>2012-08-05T12:28:09Z</time>
      </trkpt>
      <trkpt lat="61.6668493487" lon="8.7040323671">
        <ele>1316.66</ele>
        <time>2012-08-05T12:28:10Z</time>
      </trkpt>
      <trkpt lat="61.6668501031" lon="8.70401627384">
        <ele>1316.18</ele>
        <time>2012-08-05T12:28:11Z</time>
      </trkpt>
      <trkpt lat="61.666842727" lon="8.70400177315">
        <ele>1316.18</ele>
        <time>2012-08-05T12:28:12Z</time>
      </trkpt>
      <trkpt lat="61.666833004" lon="8.7039830815">
        <ele>1316.66</ele>
        <time>2012-08-05T12:28:13Z</time>
      </trkpt>
      <trkpt lat="61.6667483468" lon="8.70372248814">
        <ele>1316.18</ele>
        <time>2012-08-05T12:28:27Z</time>
      </trkpt>
      <trkpt lat="61.6666720714" lon="8.70344060473">
        <ele>1315.7</ele>
        <time>2012-08-05T12:28:41Z</time>
      </trkpt>
      <trkpt lat="61.6666641086" lon="8.70337287895">
        <ele>1315.22</ele>
        <time>2012-08-05T12:28:44Z</time>
      </trkpt>
      <trkpt lat="61.666657906" lon="8.7033546064">
        <ele>1315.22</ele>
        <time>2012-08-05T12:28:45Z</time>
      </trkpt>
      <trkpt lat="61.6666483507" lon="8.70332971215">
        <ele>1315.7</ele>
        <time>2012-08-05T12:28:46Z</time>
      </trkpt>
      <trkpt lat="61.6665618494" lon="8.70307414792">
        <ele>1315.7</ele>
        <time>2012-08-05T12:28:59Z</time>
      </trkpt>
      <trkpt lat="61.6665278189" lon="8.70286460035">
        <ele>1315.22</ele>
        <time>2012-08-05T12:29:08Z</time>
      </trkpt>
      <trkpt lat="61.666515246" lon="8.7028388679">
        <ele>1314.74</ele>
        <time>2012-08-05T12:29:09Z</time>
      </trkpt>
      <trkpt lat="61.666498147" lon="8.70281355456">
        <ele>1314.74</ele>
        <time>2012-08-05T12:29:10Z</time>
      </trkpt>
      <trkpt lat="61.6664130706" lon="8.70255287737">
        <ele>1315.7</ele>
        <time>2012-08-05T12:29:23Z</time>
      </trkpt>
      <trkpt lat="61.6663690656" lon="8.70241549797">
        <ele>1314.74</ele>
        <time>2012-08-05T12:29:37Z</time>
      </trkpt>
      <trkpt lat="61.6663501225" lon="8.7021729257">
        <ele>1315.22</ele>
        <time>2012-08-05T12:29:49Z</time>
      </trkpt>
      <trkpt lat="61.6662770323" lon="8.7019130867">
        <ele>1315.22</ele>
        <time>2012-08-05T12:30:03Z</time>
      </trkpt>
      <trkpt lat="61.6662687343" lon="8.70186313055">
        <ele>1314.74</ele>
        <time>2012-08-05T12:30:06Z</time>
      </trkpt>
      <trkpt lat="61.6662629507" lon="8.70183899067">
        <ele>1315.22</ele>
        <time>2012-08-05T12:30:07Z</time>
      </trkpt>
      <trkpt lat="61.6662035231" lon="8.70164050721">
        <ele>1314.26</ele>
        <time>2012-08-05T12:30:19Z</time>
      </trkpt>
      <trkpt lat="61.6661808081" lon="8.70152785443">
        <ele>1314.26</ele>
        <time>2012-08-05T12:30:32Z</time>
      </trkpt>
      <trkpt lat="61.666164631" lon="8.70137605816">
        <ele>1314.74</ele>
        <time>2012-08-05T12:30:46Z</time>
      </trkpt>
      <trkpt lat="61.6661543213" lon="8.70135007426">
        <ele>1314.26</ele>
        <time>2012-08-05T12:30:49Z</time>
      </trkpt>
      <trkpt lat="61.6661410779" lon="8.70133247226">
        <ele>1312.82</ele>
        <time>2012-08-05T12:30:53Z</time>
      </trkpt>
      <trkpt lat="61.6661185306" lon="8.7012722902">
        <ele>1314.74</ele>
        <time>2012-08-05T12:30:57Z</time>
      </trkpt>
      <trkpt lat="61.6661056224" lon="8.70119676925">
        <ele>1314.26</ele>
        <time>2012-08-05T12:31:08Z</time>
      </trkpt>
      <trkpt lat="61.6660404112" lon="8.70103399269">
        <ele>1314.26</ele>
        <time>2012-08-05T12:31:19Z</time>
      </trkpt>
      <trkpt lat="61.6659974121" lon="8.70082318783">
        <ele>1314.74</ele>
        <time>2012-08-05T12:31:31Z</time>
      </trkpt>
      <trkpt lat="61.6658949852" lon="8.70056200773">
        <ele>1314.26</ele>
        <time>2012-08-05T12:31:46Z</time>
      </trkpt>
      <trkpt lat="61.6658243258" lon="8.70030015707">
        <ele>1314.26</ele>
        <time>2012-08-05T12:32:00Z</time>
      </trkpt>
      <trkpt lat="61.665741764" lon="8.7000342831">
        <ele>1314.26</ele>
        <time>2012-08-05T12:32:13Z</time>
      </trkpt>
      <trkpt lat="61.6656686738" lon="8.69974862784">
        <ele>1313.78</ele>
        <time>2012-08-05T12:32:26Z</time>
      </trkpt>
      <trkpt lat="61.6655679233" lon="8.69950203225">
        <ele>1314.74</ele>
        <time>2012-08-05T12:32:40Z</time>
      </trkpt>
      <trkpt lat="61.6654368304" lon="8.69934814051">
        <ele>1314.74</ele>
        <time>2012-08-05T12:32:54Z</time>
      </trkpt>
      <trkpt lat="61.6653152928" lon="8.6992001161">
        <ele>1314.26</ele>
        <time>2012-08-05T12:33:07Z</time>
      </trkpt>
      <trkpt lat="61.6651670169" lon="8.69910489768">
        <ele>1313.78</ele>
        <time>2012-08-05T12:33:21Z</time>
      </trkpt>
      <trkpt lat="61.6651117802" lon="8.69903323241">
        <ele>1314.74</ele>
        <time>2012-08-05T12:33:30Z</time>
      </trkpt>
      <trkpt lat="61.665101219" lon="8.69902426377">
        <ele>1315.22</ele>
        <time>2012-08-05T12:33:31Z</time>
      </trkpt>
      <trkpt lat="61.6650879756" lon="8.69900733232">
        <ele>1314.74</ele>
        <time>2012-08-05T12:33:32Z</time>
      </trkpt>
      <trkpt lat="61.6650117841" lon="8.69885427877">
        <ele>1314.26</ele>
        <time>2012-08-05T12:33:45Z</time>
      </trkpt>
      <trkpt lat="61.6649791785" lon="8.69885788299">
        <ele>1314.26</ele>
        <time>2012-08-05T12:33:59Z</time>
      </trkpt>
      <trkpt lat="61.6649626661" lon="8.69884598069">
        <ele>1315.22</ele>
        <time>2012-08-05T12:34:00Z</time>
      </trkpt>
      <trkpt lat="61.6649465729" lon="8.69883701205">
        <ele>1314.74</ele>
        <time>2012-08-05T12:34:01Z</time>
      </trkpt>
      <trkpt lat="61.6649350896" lon="8.69883064181">
        <ele>1314.74</ele>
        <time>2012-08-05T12:34:02Z</time>
      </trkpt>
      <trkpt lat="61.6649254505" lon="8.69882536121">
        <ele>1314.26</ele>
        <time>2012-08-05T12:34:03Z</time>
      </trkpt>
      <trkpt lat="61.6647935193" lon="8.69873911142">
        <ele>1314.26</ele>
        <time>2012-08-05T12:34:16Z</time>
      </trkpt>
      <trkpt lat="61.6646847222" lon="8.69869024493">
        <ele>1314.74</ele>
        <time>2012-08-05T12:34:29Z</time>
      </trkpt>
      <trkpt lat="61.664557904" lon="8.69866493158">
        <ele>1315.22</ele>
        <time>2012-08-05T12:34:40Z</time>
      </trkpt>
      <trkpt lat="61.6645459179" lon="8.69866233319">
        <ele>1314.74</ele>
        <time>2012-08-05T12:34:41Z</time>
      </trkpt>
      <trkpt lat="61.6645408887" lon="8.69866568595">
        <ele>1314.74</ele>
        <time>2012-08-05T12:34:42Z</time>
      </trkpt>
      <trkpt lat="61.6644478496" lon="8.69862796739">
        <ele>1314.74</ele>
        <time>2012-08-05T12:34:49Z</time>
      </trkpt>
      <trkpt lat="61.6644381266" lon="8.69863542728">
        <ele>1314.74</ele>
        <time>2012-08-05T12:34:50Z</time>
      </trkpt>
      <trkpt lat="61.6643113084" lon="8.69868077338">
        <ele>1315.22</ele>
        <time>2012-08-05T12:35:05Z</time>
      </trkpt>
      <trkpt lat="61.6641694028" lon="8.6987112835">
        <ele>1314.74</ele>
        <time>2012-08-05T12:35:18Z</time>
      </trkpt>
      <trkpt lat="61.6640554927" lon="8.69867901318">
        <ele>1315.7</ele>
        <time>2012-08-05T12:35:31Z</time>
      </trkpt>
      <trkpt lat="61.6639286745" lon="8.69862880558">
        <ele>1315.7</ele>
        <time>2012-08-05T12:35:46Z</time>
      </trkpt>
      <trkpt lat="61.6639279202" lon="8.69863643311">
        <ele>1315.22</ele>
        <time>2012-08-05T12:36:06Z</time>
      </trkpt>
      <trkpt lat="61.6638415027" lon="8.69865613058">
        <ele>1315.7</ele>
        <time>2012-08-05T12:36:19Z</time>
      </trkpt>
      <trkpt lat="61.6637203004" lon="8.69868312031">
        <ele>1316.18</ele>
        <time>2012-08-05T12:36:31Z</time>
      </trkpt>
      <trkpt lat="61.6635879502" lon="8.69867968373">
        <ele>1317.14</ele>
        <time>2012-08-05T12:36:45Z</time>
      </trkpt>
      <trkpt lat="61.6635785624" lon="8.69868488051">
        <ele>1317.14</ele>
        <time>2012-08-05T12:36:46Z</time>
      </trkpt>
      <trkpt lat="61.6635664087" lon="8.6986941006">
        <ele>1318.1</ele>
        <time>2012-08-05T12:36:47Z</time>
      </trkpt>
      <trkpt lat="61.6635518242" lon="8.69870072231">
        <ele>1317.14</ele>
        <time>2012-08-05T12:36:48Z</time>
      </trkpt>
      <trkpt lat="61.6635164525" lon="8.69870667346">
        <ele>1318.1</ele>
        <time>2012-08-05T12:36:52Z</time>
      </trkpt>
      <trkpt lat="61.6635075677" lon="8.69870449416">
        <ele>1317.14</ele>
        <time>2012-08-05T12:36:53Z</time>
      </trkpt>
      <trkpt lat="61.6634035483" lon="8.69857415557">
        <ele>1316.18</ele>
        <time>2012-08-05T12:37:07Z</time>
      </trkpt>
      <trkpt lat="61.6633932386" lon="8.69848639704">
        <ele>1316.66</ele>
        <time>2012-08-05T12:37:33Z</time>
      </trkpt>
      <trkpt lat="61.6634036321" lon="8.69847868569">
        <ele>1316.66</ele>
        <time>2012-08-05T12:37:54Z</time>
      </trkpt>
      <trkpt lat="61.66340556" lon="8.6985073518">
        <ele>1318.1</ele>
        <time>2012-08-05T12:38:13Z</time>
      </trkpt>
      <trkpt lat="61.663404135" lon="8.69845328853">
        <ele>1316.66</ele>
        <time>2012-08-05T12:38:26Z</time>
      </trkpt>
      <trkpt lat="61.6633801628" lon="8.69846393354">
        <ele>1317.62</ele>
        <time>2012-08-05T12:38:36Z</time>
      </trkpt>
      <trkpt lat="61.6634007823" lon="8.69847684167">
        <ele>1316.18</ele>
        <time>2012-08-05T12:38:38Z</time>
      </trkpt>
      <trkpt lat="61.6634317115" lon="8.69846762158">
        <ele>1317.62</ele>
        <time>2012-08-05T12:38:58Z</time>
      </trkpt>
      <trkpt lat="61.6634240001" lon="8.69846099988">
        <ele>1318.59</ele>
        <time>2012-08-05T12:39:04Z</time>
      </trkpt>
      <trkpt lat="61.6634116787" lon="8.69846560992">
        <ele>1318.59</ele>
        <time>2012-08-05T12:39:05Z</time>
      </trkpt>
      <trkpt lat="61.6633926518" lon="8.69846326299">
        <ele>1316.66</ele>
        <time>2012-08-05T12:39:07Z</time>
      </trkpt>
      <trkpt lat="61.6633940767" lon="8.69848304428">
        <ele>1315.7</ele>
        <time>2012-08-05T12:39:18Z</time>
      </trkpt>
      <trkpt lat="61.6633727029" lon="8.69847633876">
        <ele>1317.14</ele>
        <time>2012-08-05T12:39:35Z</time>
      </trkpt>
      <trkpt lat="61.663405057" lon="8.69850022718">
        <ele>1305.13</ele>
        <time>2012-08-05T12:39:41Z</time>
      </trkpt>
      <trkpt lat="61.6634078231" lon="8.69850349613">
        <ele>1313.3</ele>
        <time>2012-08-05T12:39:42Z</time>
      </trkpt>
      <trkpt lat="61.6634075716" lon="8.69850483723">
        <ele>1316.66</ele>
        <time>2012-08-05T12:39:43Z</time>
      </trkpt>
      <trkpt lat="61.6634056438" lon="8.69850416668">
        <ele>1318.1</ele>
        <time>2012-08-05T12:39:45Z</time>
      </trkpt>
      <trkpt lat="61.663416205" lon="8.69850089774">
        <ele>1318.1</ele>
        <time>2012-08-05T12:40:21Z</time>
      </trkpt>
      <trkpt lat="61.6634081583" lon="8.69850240648">
        <ele>1317.14</ele>
        <time>2012-08-05T12:40:58Z</time>
      </trkpt>
      <trkpt lat="61.6634234972" lon="8.69850316085">
        <ele>1316.66</ele>
        <time>2012-08-05T12:41:27Z</time>
      </trkpt>
      <trkpt lat="61.6634307895" lon="8.69850810617">
        <ele>1321.47</ele>
        <time>2012-08-05T12:41:36Z</time>
      </trkpt>
      <trkpt lat="61.6634299513" lon="8.69851238094">
        <ele>1321.47</ele>
        <time>2012-08-05T12:41:37Z</time>
      </trkpt>
      <trkpt lat="61.6634341422" lon="8.6984950304">
        <ele>1317.14</ele>
        <time>2012-08-05T12:41:39Z</time>
      </trkpt>
      <trkpt lat="61.6634427756" lon="8.6984879896">
        <ele>1317.62</ele>
        <time>2012-08-05T12:41:40Z</time>
      </trkpt>
      <trkpt lat="61.6634403449" lon="8.69850089774">
        <ele>1316.66</ele>
        <time>2012-08-05T12:42:01Z</time>
      </trkpt>
      <trkpt lat="61.6634410154" lon="8.6984848883">
        <ele>1306.09</ele>
        <time>2012-08-05T12:42:13Z</time>
      </trkpt>
      <trkpt lat="61.6634414345" lon="8.69848882779">
        <ele>1315.7</ele>
        <time>2012-08-05T12:42:14Z</time>
      </trkpt>
      <trkpt lat="61.6634416021" lon="8.69849100709">
        <ele>1310.41</ele>
        <time>2012-08-05T12:42:15Z</time>
      </trkpt>
      <trkpt lat="61.6634408478" lon="8.69849561714">
        <ele>1315.7</ele>
        <time>2012-08-05T12:42:16Z</time>
      </trkpt>
      <trkpt lat="61.6634327173" lon="8.69854993187">
        <ele>1319.55</ele>
        <time>2012-08-05T12:42:40Z</time>
      </trkpt>
      <trkpt lat="61.6634338908" lon="8.69854867458">
        <ele>1318.59</ele>
        <time>2012-08-05T12:42:41Z</time>
      </trkpt>
      <trkpt lat="61.6634419374" lon="8.69855496101">
        <ele>1315.7</ele>
        <time>2012-08-05T12:42:46Z</time>
      </trkpt>
      <trkpt lat="61.6634240001" lon="8.69852352887">
        <ele>1316.18</ele>
        <time>2012-08-05T12:43:20Z</time>
      </trkpt>
      <trkpt lat="61.6633948311" lon="8.69850064628">
        <ele>1318.1</ele>
        <time>2012-08-05T12:43:37Z</time>
      </trkpt>
      <trkpt lat="61.6633906402" lon="8.69849737734">
        <ele>1317.14</ele>
        <time>2012-08-05T12:43:38Z</time>
      </trkpt>
      <trkpt lat="61.6633849405" lon="8.69849578477">
        <ele>1316.18</ele>
        <time>2012-08-05T12:43:40Z</time>
      </trkpt>
      <trkpt lat="61.6633848567" lon="8.69850483723">
        <ele>1316.18</ele>
        <time>2012-08-05T12:43:57Z</time>
      </trkpt>
      <trkpt lat="61.6633956693" lon="8.69848941453">
        <ele>1309.45</ele>
        <time>2012-08-05T12:44:05Z</time>
      </trkpt>
      <trkpt lat="61.6633982677" lon="8.69848874398">
        <ele>1313.78</ele>
        <time>2012-08-05T12:44:06Z</time>
      </trkpt>
      <trkpt lat="61.663395334" lon="8.69848446921">
        <ele>1317.62</ele>
        <time>2012-08-05T12:44:09Z</time>
      </trkpt>
      <trkpt lat="61.6633981839" lon="8.69846393354">
        <ele>1315.7</ele>
        <time>2012-08-05T12:44:13Z</time>
      </trkpt>
      <trkpt lat="61.6633920651" lon="8.69846334681">
        <ele>1319.55</ele>
        <time>2012-08-05T12:44:15Z</time>
      </trkpt>
      <trkpt lat="61.6633873712" lon="8.69846192189">
        <ele>1317.62</ele>
        <time>2012-08-05T12:44:16Z</time>
      </trkpt>
      <trkpt lat="61.6633626446" lon="8.69846074842">
        <ele>1316.66</ele>
        <time>2012-08-05T12:44:38Z</time>
      </trkpt>
      <trkpt lat="61.663350407" lon="8.69845597073">
        <ele>1316.66</ele>
        <time>2012-08-05T12:45:07Z</time>
      </trkpt>
      <trkpt lat="61.6633975133" lon="8.69855311699">
        <ele>1316.66</ele>
        <time>2012-08-05T12:45:31Z</time>
      </trkpt>
      <trkpt lat="61.6633848567" lon="8.69852235541">
        <ele>1317.14</ele>
        <time>2012-08-05T12:45:58Z</time>
      </trkpt>
      <trkpt lat="61.6633969266" lon="8.69851414114">
        <ele>1317.62</ele>
        <time>2012-08-05T12:46:15Z</time>
      </trkpt>
      <trkpt lat="61.6633766424" lon="8.69849670678">
        <ele>1316.66</ele>
        <time>2012-08-05T12:46:34Z</time>
      </trkpt>
      <trkpt lat="61.6633729544" lon="8.69847382419">
        <ele>1316.66</ele>
        <time>2012-08-05T12:46:56Z</time>
      </trkpt>
      <trkpt lat="61.6634014528" lon="8.6984540429">
        <ele>1316.18</ele>
        <time>2012-08-05T12:47:18Z</time>
      </trkpt>
      <trkpt lat="61.6633825935" lon="8.69845588692">
        <ele>1316.66</ele>
        <time>2012-08-05T12:47:44Z</time>
      </trkpt>
      <trkpt lat="61.663389802" lon="8.69852218777">
        <ele>1317.14</ele>
        <time>2012-08-05T12:47:49Z</time>
      </trkpt>
      <trkpt lat="61.6633899696" lon="8.69859972037">
        <ele>1315.7</ele>
        <time>2012-08-05T12:47:54Z</time>
      </trkpt>
      <trkpt lat="61.6633829288" lon="8.69860441424">
        <ele>1319.55</ele>
        <time>2012-08-05T12:48:01Z</time>
      </trkpt>
      <trkpt lat="61.6633815877" lon="8.69860961102">
        <ele>1316.18</ele>
        <time>2012-08-05T12:48:02Z</time>
      </trkpt>
      <trkpt lat="61.6633783188" lon="8.69861388579">
        <ele>1317.14</ele>
        <time>2012-08-05T12:48:06Z</time>
      </trkpt>
      <trkpt lat="61.6633696016" lon="8.69863836095">
        <ele>1316.66</ele>
        <time>2012-08-05T12:48:07Z</time>
      </trkpt>
      <trkpt lat="61.6633568611" lon="8.69866451249">
        <ele>1317.14</ele>
        <time>2012-08-05T12:48:08Z</time>
      </trkpt>
      <trkpt lat="61.6633447912" lon="8.69869024493">
        <ele>1316.66</ele>
        <time>2012-08-05T12:48:09Z</time>
      </trkpt>
      <trkpt lat="61.663331883" lon="8.69870390743">
        <ele>1316.66</ele>
        <time>2012-08-05T12:48:10Z</time>
      </trkpt>
      <trkpt lat="61.6633147001" lon="8.69870650582">
        <ele>1317.62</ele>
        <time>2012-08-05T12:48:11Z</time>
      </trkpt>
      <trkpt lat="61.6631728783" lon="8.69869158603">
        <ele>1317.62</ele>
        <time>2012-08-05T12:48:24Z</time>
      </trkpt>
      <trkpt lat="61.6630766541" lon="8.69860977866">
        <ele>1318.1</ele>
        <time>2012-08-05T12:48:37Z</time>
      </trkpt>
      <trkpt lat="61.6629382689" lon="8.69854322635">
        <ele>1318.1</ele>
        <time>2012-08-05T12:48:51Z</time>
      </trkpt>
      <trkpt lat="61.6627944354" lon="8.69841204956">
        <ele>1318.1</ele>
        <time>2012-08-05T12:49:06Z</time>
      </trkpt>
      <trkpt lat="61.6626372747" lon="8.69822639041">
        <ele>1318.59</ele>
        <time>2012-08-05T12:49:23Z</time>
      </trkpt>
      <trkpt lat="61.6624942794" lon="8.69799789973">
        <ele>1319.07</ele>
        <time>2012-08-05T12:49:38Z</time>
      </trkpt>
      <trkpt lat="61.6623704787" lon="8.69775381871">
        <ele>1319.07</ele>
        <time>2012-08-05T12:49:53Z</time>
      </trkpt>
      <trkpt lat="61.6622492764" lon="8.69750135578">
        <ele>1320.03</ele>
        <time>2012-08-05T12:50:08Z</time>
      </trkpt>
      <trkpt lat="61.6621491965" lon="8.69730312377">
        <ele>1319.55</ele>
        <time>2012-08-05T12:50:23Z</time>
      </trkpt>
      <trkpt lat="61.6620348673" lon="8.69708242826">
        <ele>1319.55</ele>
        <time>2012-08-05T12:50:38Z</time>
      </trkpt>
      <trkpt lat="61.661906708" lon="8.69678780437">
        <ele>1320.03</ele>
        <time>2012-08-05T12:50:55Z</time>
      </trkpt>
      <trkpt lat="61.6617894452" lon="8.69648949243">
        <ele>1320.99</ele>
        <time>2012-08-05T12:51:12Z</time>
      </trkpt>
      <trkpt lat="61.6616717633" lon="8.6962189246">
        <ele>1320.51</ele>
        <time>2012-08-05T12:51:28Z</time>
      </trkpt>
      <trkpt lat="61.6615441069" lon="8.69591843337">
        <ele>1320.51</ele>
        <time>2012-08-05T12:51:44Z</time>
      </trkpt>
      <trkpt lat="61.6614274308" lon="8.69565465488">
        <ele>1320.51</ele>
        <time>2012-08-05T12:51:59Z</time>
      </trkpt>
      <trkpt lat="61.6613200586" lon="8.69538282976">
        <ele>1321.47</ele>
        <time>2012-08-05T12:52:16Z</time>
      </trkpt>
      <trkpt lat="61.6613052227" lon="8.69534444064">
        <ele>1321.95</ele>
        <time>2012-08-05T12:52:18Z</time>
      </trkpt>
      <trkpt lat="61.6612947453" lon="8.69532734156">
        <ele>1321.95</ele>
        <time>2012-08-05T12:52:19Z</time>
      </trkpt>
      <trkpt lat="61.6612851899" lon="8.6953006871">
        <ele>1320.03</ele>
        <time>2012-08-05T12:52:20Z</time>
      </trkpt>
      <trkpt lat="61.6612759698" lon="8.69527428411">
        <ele>1323.39</ele>
        <time>2012-08-05T12:52:21Z</time>
      </trkpt>
      <trkpt lat="61.6612269357" lon="8.6950791534">
        <ele>1321.47</ele>
        <time>2012-08-05T12:52:34Z</time>
      </trkpt>
      <trkpt lat="61.6612244211" lon="8.69504529051">
        <ele>1321.47</ele>
        <time>2012-08-05T12:52:35Z</time>
      </trkpt>
      <trkpt lat="61.6611473914" lon="8.69467774406">
        <ele>1320.03</ele>
        <time>2012-08-05T12:52:52Z</time>
      </trkpt>
      <trkpt lat="61.661143871" lon="8.69467279874">
        <ele>1324.83</ele>
        <time>2012-08-05T12:52:53Z</time>
      </trkpt>
      <trkpt lat="61.6611432843" lon="8.69465955533">
        <ele>1321.47</ele>
        <time>2012-08-05T12:52:54Z</time>
      </trkpt>
      <trkpt lat="61.6611430328" lon="8.69455763139">
        <ele>1322.91</ele>
        <time>2012-08-05T12:52:58Z</time>
      </trkpt>
      <trkpt lat="61.6611327231" lon="8.69449585676">
        <ele>1322.91</ele>
        <time>2012-08-05T12:53:04Z</time>
      </trkpt>
      <trkpt lat="61.6611229163" lon="8.69434129447">
        <ele>1323.39</ele>
        <time>2012-08-05T12:53:21Z</time>
      </trkpt>
      <trkpt lat="61.6611123551" lon="8.69427490979">
        <ele>1322.43</ele>
        <time>2012-08-05T12:53:33Z</time>
      </trkpt>
      <trkpt lat="61.6611053981" lon="8.69418656453">
        <ele>1322.91</ele>
        <time>2012-08-05T12:53:59Z</time>
      </trkpt>
      <trkpt lat="61.6610948369" lon="8.69407491758">
        <ele>1322.91</ele>
        <time>2012-08-05T12:54:03Z</time>
      </trkpt>
      <trkpt lat="61.6610826831" lon="8.69404206052">
        <ele>1322.91</ele>
        <time>2012-08-05T12:54:04Z</time>
      </trkpt>
      <trkpt lat="61.6610707808" lon="8.69401884265">
        <ele>1323.39</ele>
        <time>2012-08-05T12:54:05Z</time>
      </trkpt>
      <trkpt lat="61.6610608902" lon="8.69398640469">
        <ele>1323.87</ele>
        <time>2012-08-05T12:54:06Z</time>
      </trkpt>
      <trkpt lat="61.6610564478" lon="8.69396000169">
        <ele>1322.91</ele>
        <time>2012-08-05T12:54:07Z</time>
      </trkpt>
      <trkpt lat="61.6610520892" lon="8.69392094202">
        <ele>1323.39</ele>
        <time>2012-08-05T12:54:08Z</time>
      </trkpt>
      <trkpt lat="61.6610280331" lon="8.69383485988">
        <ele>1323.87</ele>
        <time>2012-08-05T12:54:10Z</time>
      </trkpt>
      <trkpt lat="61.6610162985" lon="8.69381398894">
        <ele>1323.87</ele>
        <time>2012-08-05T12:54:11Z</time>
      </trkpt>
      <trkpt lat="61.6610079166" lon="8.69378993288">
        <ele>1323.39</ele>
        <time>2012-08-05T12:54:12Z</time>
      </trkpt>
      <trkpt lat="61.6610027198" lon="8.69375732727">
        <ele>1323.87</ele>
        <time>2012-08-05T12:54:13Z</time>
      </trkpt>
      <trkpt lat="61.6610045638" lon="8.69371944107">
        <ele>1323.39</ele>
        <time>2012-08-05T12:54:14Z</time>
      </trkpt>
      <trkpt lat="61.6610005405" lon="8.69367535226">
        <ele>1324.83</ele>
        <time>2012-08-05T12:54:17Z</time>
      </trkpt>
      <trkpt lat="61.6609908175" lon="8.69363998063">
        <ele>1324.35</ele>
        <time>2012-08-05T12:54:24Z</time>
      </trkpt>
      <trkpt lat="61.6609821841" lon="8.69362715632">
        <ele>1324.35</ele>
        <time>2012-08-05T12:54:25Z</time>
      </trkpt>
      <trkpt lat="61.6609232593" lon="8.69345650077">
        <ele>1324.35</ele>
        <time>2012-08-05T12:54:37Z</time>
      </trkpt>
      <trkpt lat="61.6609133687" lon="8.69340042584">
        <ele>1324.35</ele>
        <time>2012-08-05T12:54:41Z</time>
      </trkpt>
      <trkpt lat="61.6609086748" lon="8.69338223711">
        <ele>1324.83</ele>
        <time>2012-08-05T12:54:42Z</time>
      </trkpt>
      <trkpt lat="61.6609230079" lon="8.69332046248">
        <ele>1324.35</ele>
        <time>2012-08-05T12:54:53Z</time>
      </trkpt>
      <trkpt lat="61.6609092616" lon="8.69328861125">
        <ele>1323.87</ele>
        <time>2012-08-05T12:55:01Z</time>
      </trkpt>
      <trkpt lat="61.6609046515" lon="8.69326497428">
        <ele>1322.91</ele>
        <time>2012-08-05T12:55:02Z</time>
      </trkpt>
      <trkpt lat="61.660898868" lon="8.69323622435">
        <ele>1324.35</ele>
        <time>2012-08-05T12:55:03Z</time>
      </trkpt>
      <trkpt lat="61.6608621553" lon="8.69302567095">
        <ele>1323.87</ele>
        <time>2012-08-05T12:55:09Z</time>
      </trkpt>
      <trkpt lat="61.6608629096" lon="8.69299574755">
        <ele>1323.39</ele>
        <time>2012-08-05T12:55:10Z</time>
      </trkpt>
      <trkpt lat="61.6608515941" lon="8.69296850637">
        <ele>1325.31</ele>
        <time>2012-08-05T12:55:11Z</time>
      </trkpt>
      <trkpt lat="61.6608374286" lon="8.69294646196">
        <ele>1324.35</ele>
        <time>2012-08-05T12:55:12Z</time>
      </trkpt>
      <trkpt lat="61.6608256102" lon="8.69292953052">
        <ele>1324.83</ele>
        <time>2012-08-05T12:55:13Z</time>
      </trkpt>
      <trkpt lat="61.6608162224" lon="8.69290614501">
        <ele>1324.35</ele>
        <time>2012-08-05T12:55:14Z</time>
      </trkpt>
      <trkpt lat="61.6608167253" lon="8.69280229323">
        <ele>1325.31</ele>
        <time>2012-08-05T12:55:23Z</time>
      </trkpt>
      <trkpt lat="61.6608135402" lon="8.69277823716">
        <ele>1324.83</ele>
        <time>2012-08-05T12:55:24Z</time>
      </trkpt>
      <trkpt lat="61.6608078405" lon="8.69274915196">
        <ele>1324.83</ele>
        <time>2012-08-05T12:55:25Z</time>
      </trkpt>
      <trkpt lat="61.6608017217" lon="8.69272761047">
        <ele>1325.8</ele>
        <time>2012-08-05T12:55:26Z</time>
      </trkpt>
      <trkpt lat="61.6607913282" lon="8.69270003401">
        <ele>1325.31</ele>
        <time>2012-08-05T12:55:27Z</time>
      </trkpt>
      <trkpt lat="61.6607811861" lon="8.6926709488">
        <ele>1325.8</ele>
        <time>2012-08-05T12:55:28Z</time>
      </trkpt>
      <trkpt lat="61.6607750673" lon="8.69264152832">
        <ele>1325.8</ele>
        <time>2012-08-05T12:55:29Z</time>
      </trkpt>
      <trkpt lat="61.6607739776" lon="8.69261034764">
        <ele>1325.31</ele>
        <time>2012-08-05T12:55:30Z</time>
      </trkpt>
      <trkpt lat="61.6607831977" lon="8.69251244701">
        <ele>1326.28</ele>
        <time>2012-08-05T12:55:34Z</time>
      </trkpt>
      <trkpt lat="61.6607804317" lon="8.69244924746">
        <ele>1325.8</ele>
        <time>2012-08-05T12:55:36Z</time>
      </trkpt>
      <trkpt lat="61.6607888136" lon="8.69242602959">
        <ele>1326.28</ele>
        <time>2012-08-05T12:55:37Z</time>
      </trkpt>
      <trkpt lat="61.6608186532" lon="8.69240339845">
        <ele>1326.28</ele>
        <time>2012-08-05T12:55:43Z</time>
      </trkpt>
      <trkpt lat="61.6608194914" lon="8.69238537736">
        <ele>1326.76</ele>
        <time>2012-08-05T12:55:44Z</time>
      </trkpt>
      <trkpt lat="61.6608080082" lon="8.69236559607">
        <ele>1327.24</ele>
        <time>2012-08-05T12:55:45Z</time>
      </trkpt>
      <trkpt lat="61.6607803479" lon="8.69231698103">
        <ele>1327.72</ele>
        <time>2012-08-05T12:55:51Z</time>
      </trkpt>
      <trkpt lat="61.660745563" lon="8.69213635102">
        <ele>1327.72</ele>
        <time>2012-08-05T12:56:01Z</time>
      </trkpt>
      <trkpt lat="61.6607397795" lon="8.69210961275">
        <ele>1327.72</ele>
        <time>2012-08-05T12:56:02Z</time>
      </trkpt>
      <trkpt lat="61.6607260332" lon="8.69193736464">
        <ele>1328.68</ele>
        <time>2012-08-05T12:56:09Z</time>
      </trkpt>
      <trkpt lat="61.6607234348" lon="8.69191087782">
        <ele>1328.2</ele>
        <time>2012-08-05T12:56:10Z</time>
      </trkpt>
      <trkpt lat="61.6607473232" lon="8.69188028388">
        <ele>1327.72</ele>
        <time>2012-08-05T12:56:22Z</time>
      </trkpt>
      <trkpt lat="61.6607739776" lon="8.6918645259">
        <ele>1328.2</ele>
        <time>2012-08-05T12:56:48Z</time>
      </trkpt>
      <trkpt lat="61.6607723851" lon="8.69185765274">
        <ele>1324.83</ele>
        <time>2012-08-05T12:57:14Z</time>
      </trkpt>
      <trkpt lat="61.6607624944" lon="8.69184189476">
        <ele>1329.64</ele>
        <time>2012-08-05T12:57:15Z</time>
      </trkpt>
      <trkpt lat="61.6607051622" lon="8.69166310877">
        <ele>1329.16</ele>
        <time>2012-08-05T12:57:22Z</time>
      </trkpt>
      <trkpt lat="61.6606549546" lon="8.69134409353">
        <ele>1328.68</ele>
        <time>2012-08-05T12:57:38Z</time>
      </trkpt>
      <trkpt lat="61.6606127936" lon="8.69106992148">
        <ele>1331.08</ele>
        <time>2012-08-05T12:57:51Z</time>
      </trkpt>
      <trkpt lat="61.6605236102" lon="8.69066373445">
        <ele>1331.08</ele>
        <time>2012-08-05T12:58:10Z</time>
      </trkpt>
      <trkpt lat="61.6605026554" lon="8.6904393509">
        <ele>1332.04</ele>
        <time>2012-08-05T12:58:23Z</time>
      </trkpt>
      <trkpt lat="61.660497291" lon="8.69041998871">
        <ele>1331.56</ele>
        <time>2012-08-05T12:58:24Z</time>
      </trkpt>
      <trkpt lat="61.6604887415" lon="8.69038713165">
        <ele>1331.56</ele>
        <time>2012-08-05T12:58:25Z</time>
      </trkpt>
      <trkpt lat="61.6604821198" lon="8.69034052826">
        <ele>1333.01</ele>
        <time>2012-08-05T12:58:28Z</time>
      </trkpt>
      <trkpt lat="61.6604973748" lon="8.69035913609">
        <ele>1332.04</ele>
        <time>2012-08-05T12:58:47Z</time>
      </trkpt>
      <trkpt lat="61.6604994703" lon="8.69035502896">
        <ele>1332.04</ele>
        <time>2012-08-05T12:59:14Z</time>
      </trkpt>
      <trkpt lat="61.6604765877" lon="8.69021622464">
        <ele>1331.56</ele>
        <time>2012-08-05T12:59:24Z</time>
      </trkpt>
      <trkpt lat="61.6604715586" lon="8.6901940126">
        <ele>1333.01</ele>
        <time>2012-08-05T12:59:25Z</time>
      </trkpt>
      <trkpt lat="61.6604691278" lon="8.6901693698">
        <ele>1333.01</ele>
        <time>2012-08-05T12:59:26Z</time>
      </trkpt>
      <trkpt lat="61.6604656074" lon="8.69014506228">
        <ele>1332.52</ele>
        <time>2012-08-05T12:59:27Z</time>
      </trkpt>
      <trkpt lat="61.6604592372" lon="8.69012125768">
        <ele>1332.52</ele>
        <time>2012-08-05T12:59:28Z</time>
      </trkpt>
      <trkpt lat="61.6604382824" lon="8.69000852108">
        <ele>1333.01</ele>
        <time>2012-08-05T12:59:34Z</time>
      </trkpt>
      <trkpt lat="61.6604371928" lon="8.68998228572">
        <ele>1333.01</ele>
        <time>2012-08-05T12:59:35Z</time>
      </trkpt>
      <trkpt lat="61.660431996" lon="8.68994900957">
        <ele>1333.01</ele>
        <time>2012-08-05T12:59:36Z</time>
      </trkpt>
      <trkpt lat="61.6604245361" lon="8.68992193602">
        <ele>1333.01</ele>
        <time>2012-08-05T12:59:37Z</time>
      </trkpt>
      <trkpt lat="61.6604148969" lon="8.6898905877">
        <ele>1333.01</ele>
        <time>2012-08-05T12:59:38Z</time>
      </trkpt>
      <trkpt lat="61.6603943612" lon="8.68975781836">
        <ele>1333.49</ele>
        <time>2012-08-05T12:59:52Z</time>
      </trkpt>
      <trkpt lat="61.6603304073" lon="8.68945204653">
        <ele>1334.45</ele>
        <time>2012-08-05T13:00:06Z</time>
      </trkpt>
      <trkpt lat="61.6602795292" lon="8.68918726221">
        <ele>1334.45</ele>
        <time>2012-08-05T13:00:20Z</time>
      </trkpt>
      <trkpt lat="61.6602044273" lon="8.68889573961">
        <ele>1335.89</ele>
        <time>2012-08-05T13:00:35Z</time>
      </trkpt>
      <trkpt lat="61.6601187643" lon="8.68860203773">
        <ele>1335.41</ele>
        <time>2012-08-05T13:00:49Z</time>
      </trkpt>
      <trkpt lat="61.6599900182" lon="8.68828536943">
        <ele>1336.37</ele>
        <time>2012-08-05T13:01:06Z</time>
      </trkpt>
      <trkpt lat="61.659922041" lon="8.68817397393">
        <ele>1335.89</ele>
        <time>2012-08-05T13:01:18Z</time>
      </trkpt>
      <trkpt lat="61.6598115675" lon="8.68807842024">
        <ele>1336.85</ele>
        <time>2012-08-05T13:01:31Z</time>
      </trkpt>
      <trkpt lat="61.6597072128" lon="8.68802594952">
        <ele>1335.89</ele>
        <time>2012-08-05T13:01:44Z</time>
      </trkpt>
      <trkpt lat="61.6595549975" lon="8.68788555264">
        <ele>1337.33</ele>
        <time>2012-08-05T13:01:58Z</time>
      </trkpt>
      <trkpt lat="61.659403285" lon="8.68779100478">
        <ele>1338.29</ele>
        <time>2012-08-05T13:02:12Z</time>
      </trkpt>
      <trkpt lat="61.6592623014" lon="8.68769092485">
        <ele>1336.85</ele>
        <time>2012-08-05T13:02:26Z</time>
      </trkpt>
      <trkpt lat="61.6591006983" lon="8.68747257628">
        <ele>1337.33</ele>
        <time>2012-08-05T13:02:43Z</time>
      </trkpt>
      <trkpt lat="61.6589330602" lon="8.68718524463">
        <ele>1338.29</ele>
        <time>2012-08-05T13:03:00Z</time>
      </trkpt>
      <trkpt lat="61.6587809287" lon="8.68695742451">
        <ele>1338.77</ele>
        <time>2012-08-05T13:03:17Z</time>
      </trkpt>
      <trkpt lat="61.6587748099" lon="8.68694677949">
        <ele>1336.85</ele>
        <time>2012-08-05T13:03:18Z</time>
      </trkpt>
      <trkpt lat="61.6587653384" lon="8.68693420663">
        <ele>1338.77</ele>
        <time>2012-08-05T13:03:19Z</time>
      </trkpt>
      <trkpt lat="61.6587577946" lon="8.68692649528">
        <ele>1339.25</ele>
        <time>2012-08-05T13:03:20Z</time>
      </trkpt>
      <trkpt lat="61.658621924" lon="8.68668593466">
        <ele>1339.25</ele>
        <time>2012-08-05T13:03:37Z</time>
      </trkpt>
      <trkpt lat="61.6585899889" lon="8.68661795743">
        <ele>1339.73</ele>
        <time>2012-08-05T13:03:47Z</time>
      </trkpt>
      <trkpt lat="61.6585769132" lon="8.68660613894">
        <ele>1339.73</ele>
        <time>2012-08-05T13:03:48Z</time>
      </trkpt>
      <trkpt lat="61.6584205069" lon="8.68634814397">
        <ele>1341.18</ele>
        <time>2012-08-05T13:04:04Z</time>
      </trkpt>
      <trkpt lat="61.6583158169" lon="8.68617732078">
        <ele>1341.66</ele>
        <time>2012-08-05T13:04:19Z</time>
      </trkpt>
      <trkpt lat="61.6581728216" lon="8.68586199358">
        <ele>1339.73</ele>
        <time>2012-08-05T13:04:36Z</time>
      </trkpt>
      <trkpt lat="61.658138372" lon="8.6857907474">
        <ele>1341.18</ele>
        <time>2012-08-05T13:04:41Z</time>
      </trkpt>
      <trkpt lat="61.65799479" lon="8.685598718">
        <ele>1341.66</ele>
        <time>2012-08-05T13:04:57Z</time>
      </trkpt>
      <trkpt lat="61.6578823887" lon="8.68548355065">
        <ele>1342.14</ele>
        <time>2012-08-05T13:05:09Z</time>
      </trkpt>
      <trkpt lat="61.6577855777" lon="8.68538078852">
        <ele>1342.14</ele>
        <time>2012-08-05T13:05:18Z</time>
      </trkpt>
      <trkpt lat="61.6577669699" lon="8.6853547208">
        <ele>1342.62</ele>
        <time>2012-08-05T13:05:20Z</time>
      </trkpt>
      <trkpt lat="61.6576147545" lon="8.68520359509">
        <ele>1341.66</ele>
        <time>2012-08-05T13:05:33Z</time>
      </trkpt>
      <trkpt lat="61.6574739385" lon="8.68504559621">
        <ele>1341.66</ele>
        <time>2012-08-05T13:05:48Z</time>
      </trkpt>
      <trkpt lat="61.6573239863" lon="8.68491777219">
        <ele>1341.66</ele>
        <time>2012-08-05T13:06:02Z</time>
      </trkpt>
      <trkpt lat="61.6571653169" lon="8.68478273973">
        <ele>1341.66</ele>
        <time>2012-08-05T13:06:17Z</time>
      </trkpt>
      <trkpt lat="61.6570362356" lon="8.68472565897">
        <ele>1341.18</ele>
        <time>2012-08-05T13:06:31Z</time>
      </trkpt>
      <trkpt lat="61.6570177954" lon="8.68470788933">
        <ele>1340.7</ele>
        <time>2012-08-05T13:06:42Z</time>
      </trkpt>
      <trkpt lat="61.6570080724" lon="8.68469372392">
        <ele>1342.14</ele>
        <time>2012-08-05T13:06:43Z</time>
      </trkpt>
      <trkpt lat="61.6569958348" lon="8.68469196372">
        <ele>1340.7</ele>
        <time>2012-08-05T13:06:44Z</time>
      </trkpt>
      <trkpt lat="61.6569853574" lon="8.68469070643">
        <ele>1341.18</ele>
        <time>2012-08-05T13:06:45Z</time>
      </trkpt>
      <trkpt lat="61.6569754668" lon="8.68468324654">
        <ele>1341.18</ele>
        <time>2012-08-05T13:06:46Z</time>
      </trkpt>
      <trkpt lat="61.656893827" lon="8.68462356739">
        <ele>1340.7</ele>
        <time>2012-08-05T13:06:59Z</time>
      </trkpt>
      <trkpt lat="61.6568616405" lon="8.6846051272">
        <ele>1340.7</ele>
        <time>2012-08-05T13:07:04Z</time>
      </trkpt>
      <trkpt lat="61.6567859519" lon="8.68451954797">
        <ele>1341.66</ele>
        <time>2012-08-05T13:07:16Z</time>
      </trkpt>
      <trkpt lat="61.6567625664" lon="8.6844611261">
        <ele>1342.14</ele>
        <time>2012-08-05T13:07:39Z</time>
      </trkpt>
      <trkpt lat="61.6567545198" lon="8.68444687687">
        <ele>1342.14</ele>
        <time>2012-08-05T13:07:40Z</time>
      </trkpt>
      <trkpt lat="61.6567454673" lon="8.68442969397">
        <ele>1341.66</ele>
        <time>2012-08-05T13:07:41Z</time>
      </trkpt>
      <trkpt lat="61.6567308828" lon="8.68438367732">
        <ele>1341.66</ele>
        <time>2012-08-05T13:07:56Z</time>
      </trkpt>
      <trkpt lat="61.6567376722" lon="8.68441611528">
        <ele>1342.14</ele>
        <time>2012-08-05T13:08:30Z</time>
      </trkpt>
      <trkpt lat="61.6567441262" lon="8.68438560516">
        <ele>1343.1</ele>
        <time>2012-08-05T13:08:52Z</time>
      </trkpt>
      <trkpt lat="61.6567402706" lon="8.68436448276">
        <ele>1342.14</ele>
        <time>2012-08-05T13:08:53Z</time>
      </trkpt>
      <trkpt lat="61.6567328107" lon="8.68433489464">
        <ele>1342.14</ele>
        <time>2012-08-05T13:08:54Z</time>
      </trkpt>
      <trkpt lat="61.6567066591" lon="8.68415434845">
        <ele>1342.62</ele>
        <time>2012-08-05T13:09:01Z</time>
      </trkpt>
      <trkpt lat="61.6567040607" lon="8.68412266485">
        <ele>1343.1</ele>
        <time>2012-08-05T13:09:02Z</time>
      </trkpt>
      <trkpt lat="61.6566996183" lon="8.68409148417">
        <ele>1343.1</ele>
        <time>2012-08-05T13:09:03Z</time>
      </trkpt>
      <trkpt lat="61.6566935834" lon="8.68406717665">
        <ele>1343.58</ele>
        <time>2012-08-05T13:09:04Z</time>
      </trkpt>
      <trkpt lat="61.6566889733" lon="8.68403406814">
        <ele>1343.58</ele>
        <time>2012-08-05T13:09:05Z</time>
      </trkpt>
      <trkpt lat="61.6566709522" lon="8.6836789269">
        <ele>1344.06</ele>
        <time>2012-08-05T13:09:20Z</time>
      </trkpt>
      <trkpt lat="61.6566507518" lon="8.68342420086">
        <ele>1345.5</ele>
        <time>2012-08-05T13:09:33Z</time>
      </trkpt>
      <trkpt lat="61.6566245165" lon="8.6831975542">
        <ele>1345.5</ele>
        <time>2012-08-05T13:09:46Z</time>
      </trkpt>
      <trkpt lat="61.6565964371" lon="8.68293704465">
        <ele>1346.94</ele>
        <time>2012-08-05T13:09:59Z</time>
      </trkpt>
      <trkpt lat="61.6565986164" lon="8.68291449733">
        <ele>1346.46</ele>
        <time>2012-08-05T13:10:15Z</time>
      </trkpt>
      <trkpt lat="61.6565837804" lon="8.68289664388">
        <ele>1346.94</ele>
        <time>2012-08-05T13:10:21Z</time>
      </trkpt>
      <trkpt lat="61.6565767396" lon="8.68286428973">
        <ele>1346.46</ele>
        <time>2012-08-05T13:10:22Z</time>
      </trkpt>
      <trkpt lat="61.6565470677" lon="8.68259732611">
        <ele>1347.91</ele>
        <time>2012-08-05T13:10:35Z</time>
      </trkpt>
      <trkpt lat="61.6565064155" lon="8.68240152486">
        <ele>1346.94</ele>
        <time>2012-08-05T13:10:44Z</time>
      </trkpt>
      <trkpt lat="61.6565031465" lon="8.68237411603">
        <ele>1348.39</ele>
        <time>2012-08-05T13:10:45Z</time>
      </trkpt>
      <trkpt lat="61.6564582195" lon="8.68204504251">
        <ele>1347.43</ele>
        <time>2012-08-05T13:11:00Z</time>
      </trkpt>
      <trkpt lat="61.6564510111" lon="8.68193716742">
        <ele>1347.43</ele>
        <time>2012-08-05T13:11:04Z</time>
      </trkpt>
      <trkpt lat="61.6564518493" lon="8.68190732785">
        <ele>1346.94</ele>
        <time>2012-08-05T13:11:05Z</time>
      </trkpt>
      <trkpt lat="61.6564501729" lon="8.68188662454">
        <ele>1347.43</ele>
        <time>2012-08-05T13:11:06Z</time>
      </trkpt>
      <trkpt lat="61.6564432159" lon="8.6818613112">
        <ele>1346.94</ele>
        <time>2012-08-05T13:11:07Z</time>
      </trkpt>
      <trkpt lat="61.6564370971" lon="8.68184152991">
        <ele>1347.43</ele>
        <time>2012-08-05T13:11:08Z</time>
      </trkpt>
      <trkpt lat="61.6564327385" lon="8.68182367645">
        <ele>1347.43</ele>
        <time>2012-08-05T13:11:09Z</time>
      </trkpt>
      <trkpt lat="61.6564195789" lon="8.68176450022">
        <ele>1347.43</ele>
        <time>2012-08-05T13:11:13Z</time>
      </trkpt>
      <trkpt lat="61.6564159747" lon="8.68173474446">
        <ele>1346.94</ele>
        <time>2012-08-05T13:11:14Z</time>
      </trkpt>
      <trkpt lat="61.6564153042" lon="8.68170507252">
        <ele>1347.43</ele>
        <time>2012-08-05T13:11:15Z</time>
      </trkpt>
      <trkpt lat="61.6564136278" lon="8.68167523295">
        <ele>1347.43</ele>
        <time>2012-08-05T13:11:16Z</time>
      </trkpt>
      <trkpt lat="61.6564125381" lon="8.68165377527">
        <ele>1346.94</ele>
        <time>2012-08-05T13:11:17Z</time>
      </trkpt>
      <trkpt lat="61.6564090177" lon="8.68163567036">
        <ele>1347.43</ele>
        <time>2012-08-05T13:11:18Z</time>
      </trkpt>
      <trkpt lat="61.6564039886" lon="8.68161748163">
        <ele>1346.94</ele>
        <time>2012-08-05T13:11:19Z</time>
      </trkpt>
      <trkpt lat="61.6563947685" lon="8.68154045194">
        <ele>1346.94</ele>
        <time>2012-08-05T13:11:23Z</time>
      </trkpt>
      <trkpt lat="61.6563924216" lon="8.6815151386">
        <ele>1347.91</ele>
        <time>2012-08-05T13:11:24Z</time>
      </trkpt>
      <trkpt lat="61.6563418787" lon="8.68115907535">
        <ele>1347.43</ele>
        <time>2012-08-05T13:11:39Z</time>
      </trkpt>
      <trkpt lat="61.6563065071" lon="8.68087325245">
        <ele>1348.39</ele>
        <time>2012-08-05T13:11:53Z</time>
      </trkpt>
      <trkpt lat="61.6562760808" lon="8.6806166824">
        <ele>1349.83</ele>
        <time>2012-08-05T13:12:04Z</time>
      </trkpt>
      <trkpt lat="61.6562701296" lon="8.68059304543">
        <ele>1348.87</ele>
        <time>2012-08-05T13:12:05Z</time>
      </trkpt>
      <trkpt lat="61.6562631726" lon="8.68057083338">
        <ele>1349.35</ele>
        <time>2012-08-05T13:12:06Z</time>
      </trkpt>
      <trkpt lat="61.656258814" lon="8.68055222556">
        <ele>1348.87</ele>
        <time>2012-08-05T13:12:07Z</time>
      </trkpt>
      <trkpt lat="61.6561932676" lon="8.68025458418">
        <ele>1350.31</ele>
        <time>2012-08-05T13:12:21Z</time>
      </trkpt>
      <trkpt lat="61.6561112087" lon="8.67993850261">
        <ele>1350.79</ele>
        <time>2012-08-05T13:12:36Z</time>
      </trkpt>
      <trkpt lat="61.6560542956" lon="8.67965100333">
        <ele>1351.75</ele>
        <time>2012-08-05T13:12:49Z</time>
      </trkpt>
      <trkpt lat="61.6559736617" lon="8.67932327092">
        <ele>1351.27</ele>
        <time>2012-08-05T13:13:03Z</time>
      </trkpt>
      <trkpt lat="61.6559615918" lon="8.67928496562">
        <ele>1350.31</ele>
        <time>2012-08-05T13:13:06Z</time>
      </trkpt>
      <trkpt lat="61.6559516173" lon="8.67921665311">
        <ele>1351.27</ele>
        <time>2012-08-05T13:13:10Z</time>
      </trkpt>
      <trkpt lat="61.6559460014" lon="8.67918480188">
        <ele>1351.27</ele>
        <time>2012-08-05T13:13:11Z</time>
      </trkpt>
      <trkpt lat="61.6559408884" lon="8.67915563285">
        <ele>1350.79</ele>
        <time>2012-08-05T13:13:12Z</time>
      </trkpt>
      <trkpt lat="61.6559345182" lon="8.67913182825">
        <ele>1350.31</ele>
        <time>2012-08-05T13:13:13Z</time>
      </trkpt>
      <trkpt lat="61.6559265554" lon="8.67910743691">
        <ele>1350.79</ele>
        <time>2012-08-05T13:13:14Z</time>
      </trkpt>
      <trkpt lat="61.6559201851" lon="8.67909008637">
        <ele>1350.31</ele>
        <time>2012-08-05T13:13:15Z</time>
      </trkpt>
      <trkpt lat="61.6559058521" lon="8.67882018909">
        <ele>1349.83</ele>
        <time>2012-08-05T13:13:28Z</time>
      </trkpt>
      <trkpt lat="61.6558883339" lon="8.67851207033">
        <ele>1348.87</ele>
        <time>2012-08-05T13:13:41Z</time>
      </trkpt>
      <trkpt lat="61.6558663733" lon="8.6782512255">
        <ele>1349.35</ele>
        <time>2012-08-05T13:13:56Z</time>
      </trkpt>
      <trkpt lat="61.6558802873" lon="8.67828676477">
        <ele>1349.35</ele>
        <time>2012-08-05T13:14:10Z</time>
      </trkpt>
      <trkpt lat="61.6559002362" lon="8.67832305841">
        <ele>1349.35</ele>
        <time>2012-08-05T13:14:31Z</time>
      </trkpt>
      <trkpt lat="61.6558688041" lon="8.67812180892">
        <ele>1349.83</ele>
        <time>2012-08-05T13:14:52Z</time>
      </trkpt>
      <trkpt lat="61.6558618471" lon="8.67780421861">
        <ele>1349.35</ele>
        <time>2012-08-05T13:15:05Z</time>
      </trkpt>
      <trkpt lat="61.6558574885" lon="8.67761059664">
        <ele>1348.87</ele>
        <time>2012-08-05T13:15:19Z</time>
      </trkpt>
      <trkpt lat="61.6558233742" lon="8.6774981115">
        <ele>1349.35</ele>
        <time>2012-08-05T13:15:28Z</time>
      </trkpt>
      <trkpt lat="61.6558204405" lon="8.6774778273">
        <ele>1350.31</ele>
        <time>2012-08-05T13:15:29Z</time>
      </trkpt>
      <trkpt lat="61.6558056045" lon="8.67733960971">
        <ele>1350.31</ele>
        <time>2012-08-05T13:15:35Z</time>
      </trkpt>
      <trkpt lat="61.6558036767" lon="8.67725914344">
        <ele>1348.87</ele>
        <time>2012-08-05T13:15:38Z</time>
      </trkpt>
      <trkpt lat="61.6557912715" lon="8.6770462431">
        <ele>1349.83</ele>
        <time>2012-08-05T13:15:50Z</time>
      </trkpt>
      <trkpt lat="61.6557611804" lon="8.67668163031">
        <ele>1349.35</ele>
        <time>2012-08-05T13:16:04Z</time>
      </trkpt>
      <trkpt lat="61.6557294969" lon="8.67630008608">
        <ele>1348.87</ele>
        <time>2012-08-05T13:16:19Z</time>
      </trkpt>
      <trkpt lat="61.6557117272" lon="8.67613638751">
        <ele>1349.83</ele>
        <time>2012-08-05T13:16:26Z</time>
      </trkpt>
      <trkpt lat="61.6556037683" lon="8.67584109306">
        <ele>1348.87</ele>
        <time>2012-08-05T13:16:42Z</time>
      </trkpt>
      <trkpt lat="61.6555582546" lon="8.67580077611">
        <ele>1347.91</ele>
        <time>2012-08-05T13:16:49Z</time>
      </trkpt>
      <trkpt lat="61.6555490345" lon="8.67579063401">
        <ele>1349.35</ele>
        <time>2012-08-05T13:16:50Z</time>
      </trkpt>
      <trkpt lat="61.6555251461" lon="8.67578962818">
        <ele>1348.87</ele>
        <time>2012-08-05T13:16:53Z</time>
      </trkpt>
      <trkpt lat="61.6555152554" lon="8.67577495985">
        <ele>1348.87</ele>
        <time>2012-08-05T13:16:54Z</time>
      </trkpt>
      <trkpt lat="61.6554689035" lon="8.67570983246">
        <ele>1348.87</ele>
        <time>2012-08-05T13:17:07Z</time>
      </trkpt>
      <trkpt lat="61.6554465238" lon="8.67566918023">
        <ele>1348.39</ele>
        <time>2012-08-05T13:17:38Z</time>
      </trkpt>
      <trkpt lat="61.6554497927" lon="8.67564378306">
        <ele>1348.87</ele>
        <time>2012-08-05T13:18:02Z</time>
      </trkpt>
      <trkpt lat="61.6554725915" lon="8.67564411834">
        <ele>1348.87</ele>
        <time>2012-08-05T13:18:20Z</time>
      </trkpt>
      <trkpt lat="61.6554463562" lon="8.67565308698">
        <ele>1349.35</ele>
        <time>2012-08-05T13:18:31Z</time>
      </trkpt>
      <trkpt lat="61.6553878505" lon="8.67566247471">
        <ele>1349.35</ele>
        <time>2012-08-05T13:18:45Z</time>
      </trkpt>
      <trkpt lat="61.6553527303" lon="8.67565317079">
        <ele>1348.39</ele>
        <time>2012-08-05T13:19:00Z</time>
      </trkpt>
      <trkpt lat="61.6553135868" lon="8.67564227432">
        <ele>1348.39</ele>
        <time>2012-08-05T13:19:15Z</time>
      </trkpt>
      <trkpt lat="61.6551761236" lon="8.67545359768">
        <ele>1347.43</ele>
        <time>2012-08-05T13:19:28Z</time>
      </trkpt>
      <trkpt lat="61.6551164445" lon="8.67519107647">
        <ele>1346.46</ele>
        <time>2012-08-05T13:19:41Z</time>
      </trkpt>
      <trkpt lat="61.6550461203" lon="8.67501597852">
        <ele>1345.98</ele>
        <time>2012-08-05T13:19:51Z</time>
      </trkpt>
      <trkpt lat="61.6550401691" lon="8.67499846034">
        <ele>1345.5</ele>
        <time>2012-08-05T13:19:52Z</time>
      </trkpt>
      <trkpt lat="61.6550331283" lon="8.67497624829">
        <ele>1345.98</ele>
        <time>2012-08-05T13:19:54Z</time>
      </trkpt>
      <trkpt lat="61.6550265905" lon="8.67496116087">
        <ele>1345.5</ele>
        <time>2012-08-05T13:19:55Z</time>
      </trkpt>
      <trkpt lat="61.6550186276" lon="8.67493391968">
        <ele>1345.02</ele>
        <time>2012-08-05T13:19:56Z</time>
      </trkpt>
      <trkpt lat="61.6549385805" lon="8.67467206903">
        <ele>1346.94</ele>
        <time>2012-08-05T13:20:09Z</time>
      </trkpt>
      <trkpt lat="61.6548400093" lon="8.67450350896">
        <ele>1347.43</ele>
        <time>2012-08-05T13:20:22Z</time>
      </trkpt>
      <trkpt lat="61.6548283584" lon="8.67449705489">
        <ele>1346.94</ele>
        <time>2012-08-05T13:20:23Z</time>
      </trkpt>
      <trkpt lat="61.6548136063" lon="8.67449303158">
        <ele>1346.46</ele>
        <time>2012-08-05T13:20:24Z</time>
      </trkpt>
      <trkpt lat="61.6547980998" lon="8.67448045872">
        <ele>1345.98</ele>
        <time>2012-08-05T13:20:25Z</time>
      </trkpt>
      <trkpt lat="61.6547856107" lon="8.67446126416">
        <ele>1345.98</ele>
        <time>2012-08-05T13:20:26Z</time>
      </trkpt>
      <trkpt lat="61.6547737923" lon="8.67445589975">
        <ele>1347.43</ele>
        <time>2012-08-05T13:20:27Z</time>
      </trkpt>
      <trkpt lat="61.6547546815" lon="8.67442086339">
        <ele>1346.94</ele>
        <time>2012-08-05T13:20:39Z</time>
      </trkpt>
      <trkpt lat="61.6547254287" lon="8.67435447872">
        <ele>1346.94</ele>
        <time>2012-08-05T13:20:51Z</time>
      </trkpt>
      <trkpt lat="61.6547213215" lon="8.67432857864">
        <ele>1347.43</ele>
        <time>2012-08-05T13:20:52Z</time>
      </trkpt>
      <trkpt lat="61.6546858661" lon="8.67421274073">
        <ele>1345.98</ele>
        <time>2012-08-05T13:21:05Z</time>
      </trkpt>
      <trkpt lat="61.654680334" lon="8.67421248928">
        <ele>1342.14</ele>
        <time>2012-08-05T13:21:07Z</time>
      </trkpt>
      <trkpt lat="61.6546805017" lon="8.67421408184">
        <ele>1348.39</ele>
        <time>2012-08-05T13:21:08Z</time>
      </trkpt>
      <trkpt lat="61.654674802" lon="8.67421299219">
        <ele>1346.46</ele>
        <time>2012-08-05T13:21:09Z</time>
      </trkpt>
      <trkpt lat="61.6546571162" lon="8.6742205359">
        <ele>1343.1</ele>
        <time>2012-08-05T13:21:20Z</time>
      </trkpt>
      <trkpt lat="61.654646555" lon="8.67419589311">
        <ele>1346.94</ele>
        <time>2012-08-05T13:21:22Z</time>
      </trkpt>
      <trkpt lat="61.6546427831" lon="8.67418474518">
        <ele>1346.46</ele>
        <time>2012-08-05T13:21:23Z</time>
      </trkpt>
      <trkpt lat="61.6546694376" lon="8.67419949733">
        <ele>1345.98</ele>
        <time>2012-08-05T13:21:36Z</time>
      </trkpt>
      <trkpt lat="61.6546668392" lon="8.67426336743">
        <ele>1345.98</ele>
        <time>2012-08-05T13:21:56Z</time>
      </trkpt>
      <trkpt lat="61.6546572838" lon="8.67424098775">
        <ele>1344.54</ele>
        <time>2012-08-05T13:22:10Z</time>
      </trkpt>
      <trkpt lat="61.654659044" lon="8.67420846596">
        <ele>1347.43</ele>
        <time>2012-08-05T13:22:26Z</time>
      </trkpt>
      <trkpt lat="61.6546684317" lon="8.67428842932">
        <ele>1344.06</ele>
        <time>2012-08-05T13:22:35Z</time>
      </trkpt>
      <trkpt lat="61.654654434" lon="8.67435364053">
        <ele>1344.54</ele>
        <time>2012-08-05T13:22:44Z</time>
      </trkpt>
      <trkpt lat="61.6546547692" lon="8.67438155226">
        <ele>1344.06</ele>
        <time>2012-08-05T13:22:45Z</time>
      </trkpt>
      <trkpt lat="61.654642364" lon="8.67435942404">
        <ele>1343.58</ele>
        <time>2012-08-05T13:22:55Z</time>
      </trkpt>
      <trkpt lat="61.6546499915" lon="8.67434835993">
        <ele>1346.94</ele>
        <time>2012-08-05T13:22:57Z</time>
      </trkpt>
      <trkpt lat="61.654654434" lon="8.67434685118">
        <ele>1343.58</ele>
        <time>2012-08-05T13:22:58Z</time>
      </trkpt>
      <trkpt lat="61.6546622291" lon="8.67434257641">
        <ele>1347.91</ele>
        <time>2012-08-05T13:23:00Z</time>
      </trkpt>
      <trkpt lat="61.6546552721" lon="8.67432899773">
        <ele>1344.06</ele>
        <time>2012-08-05T13:23:03Z</time>
      </trkpt>
      <trkpt lat="61.6546583734" lon="8.67433570325">
        <ele>1347.43</ele>
        <time>2012-08-05T13:23:04Z</time>
      </trkpt>
      <trkpt lat="61.6546450462" lon="8.67437811568">
        <ele>1344.06</ele>
        <time>2012-08-05T13:23:20Z</time>
      </trkpt>
      <trkpt lat="61.6546497401" lon="8.67441491224">
        <ele>1345.02</ele>
        <time>2012-08-05T13:23:22Z</time>
      </trkpt>
      <trkpt lat="61.6546497401" lon="8.67443670519">
        <ele>1343.58</ele>
        <time>2012-08-05T13:23:23Z</time>
      </trkpt>
      <trkpt lat="61.6546504106" lon="8.67446193472">
        <ele>1342.62</ele>
        <time>2012-08-05T13:23:24Z</time>
      </trkpt>
      <trkpt lat="61.6546551045" lon="8.67463502102">
        <ele>1344.54</ele>
        <time>2012-08-05T13:23:33Z</time>
      </trkpt>
      <trkpt lat="61.6546555236" lon="8.67469696328">
        <ele>1343.1</ele>
        <time>2012-08-05T13:23:38Z</time>
      </trkpt>
      <trkpt lat="61.6546779033" lon="8.67472412065">
        <ele>1345.5</ele>
        <time>2012-08-05T13:24:06Z</time>
      </trkpt>
      <trkpt lat="61.6546867043" lon="8.67470970377">
        <ele>1342.14</ele>
        <time>2012-08-05T13:24:21Z</time>
      </trkpt>
      <trkpt lat="61.6546499077" lon="8.67474096827">
        <ele>1357.04</ele>
        <time>2012-08-05T13:24:48Z</time>
      </trkpt>
      <trkpt lat="61.6546384245" lon="8.67473283783">
        <ele>1346.94</ele>
        <time>2012-08-05T13:24:49Z</time>
      </trkpt>
      <trkpt lat="61.654633563" lon="8.67469746619">
        <ele>1345.02</ele>
        <time>2012-08-05T13:24:51Z</time>
      </trkpt>
      <trkpt lat="61.6546243429" lon="8.67465815507">
        <ele>1343.58</ele>
        <time>2012-08-05T13:24:53Z</time>
      </trkpt>
      <trkpt lat="61.6546437051" lon="8.67458347231">
        <ele>1343.58</ele>
        <time>2012-08-05T13:24:57Z</time>
      </trkpt>
      <trkpt lat="61.6546078306" lon="8.67434710264">
        <ele>1345.02</ele>
        <time>2012-08-05T13:25:08Z</time>
      </trkpt>
      <trkpt lat="61.6546203196" lon="8.67430988699">
        <ele>1344.54</ele>
        <time>2012-08-05T13:25:11Z</time>
      </trkpt>
      <trkpt lat="61.6546421126" lon="8.67426646873">
        <ele>1346.46</ele>
        <time>2012-08-05T13:25:16Z</time>
      </trkpt>
      <trkpt lat="61.6546631511" lon="8.67422615178">
        <ele>1349.35</ele>
        <time>2012-08-05T13:25:20Z</time>
      </trkpt>
      <trkpt lat="61.6546732932" lon="8.67422439158">
        <ele>1343.1</ele>
        <time>2012-08-05T13:25:22Z</time>
      </trkpt>
      <trkpt lat="61.6546749696" lon="8.67421718314">
        <ele>1349.35</ele>
        <time>2012-08-05T13:25:23Z</time>
      </trkpt>
      <trkpt lat="61.6546807531" lon="8.67422556505">
        <ele>1345.98</ele>
        <time>2012-08-05T13:25:33Z</time>
      </trkpt>
      <trkpt lat="61.6546665039" lon="8.67420326918">
        <ele>1347.43</ele>
        <time>2012-08-05T13:25:44Z</time>
      </trkpt>
      <trkpt lat="61.6546424478" lon="8.6742279958">
        <ele>1346.46</ele>
        <time>2012-08-05T13:26:01Z</time>
      </trkpt>
      <trkpt lat="61.6546670068" lon="8.67425112985">
        <ele>1346.46</ele>
        <time>2012-08-05T13:26:37Z</time>
      </trkpt>
      <trkpt lat="61.6546475608" lon="8.67423662916">
        <ele>1344.54</ele>
        <time>2012-08-05T13:27:02Z</time>
      </trkpt>
      <trkpt lat="61.6546495724" lon="8.67423369549">
        <ele>1348.87</ele>
        <time>2012-08-05T13:27:03Z</time>
      </trkpt>
      <trkpt lat="61.6546505783" lon="8.6742332764">
        <ele>1345.5</ele>
        <time>2012-08-05T13:27:05Z</time>
      </trkpt>
      <trkpt lat="61.6546884645" lon="8.67423369549">
        <ele>1341.18</ele>
        <time>2012-08-05T13:27:11Z</time>
      </trkpt>
      <trkpt lat="61.6546865366" lon="8.67424534634">
        <ele>1351.27</ele>
        <time>2012-08-05T13:27:12Z</time>
      </trkpt>
      <trkpt lat="61.6546846088" lon="8.67425154895">
        <ele>1347.43</ele>
        <time>2012-08-05T13:27:13Z</time>
      </trkpt>
      <trkpt lat="61.6546661686" lon="8.6742606014">
        <ele>1344.54</ele>
        <time>2012-08-05T13:27:32Z</time>
      </trkpt>
      <trkpt lat="61.6546674259" lon="8.67426613346">
        <ele>1348.39</ele>
        <time>2012-08-05T13:27:33Z</time>
      </trkpt>
      <trkpt lat="61.6546705272" lon="8.67426931858">
        <ele>1343.1</ele>
        <time>2012-08-05T13:27:34Z</time>
      </trkpt>
      <trkpt lat="61.6546754725" lon="8.67425942793">
        <ele>1347.91</ele>
        <time>2012-08-05T13:27:35Z</time>
      </trkpt>
      <trkpt lat="61.6546726227" lon="8.67423788644">
        <ele>1335.41</ele>
        <time>2012-08-05T13:27:40Z</time>
      </trkpt>
      <trkpt lat="61.6546668392" lon="8.67424082011">
        <ele>1345.5</ele>
        <time>2012-08-05T13:27:41Z</time>
      </trkpt>
      <trkpt lat="61.6546499077" lon="8.67424568161">
        <ele>1345.98</ele>
        <time>2012-08-05T13:28:13Z</time>
      </trkpt>
      <trkpt lat="61.6546486504" lon="8.67424316704">
        <ele>1353.19</ele>
        <time>2012-08-05T13:28:14Z</time>
      </trkpt>
      <trkpt lat="61.654646052" lon="8.67423830554">
        <ele>1350.31</ele>
        <time>2012-08-05T13:28:15Z</time>
      </trkpt>
      <trkpt lat="61.6546463035" lon="8.67424140684">
        <ele>1346.94</ele>
        <time>2012-08-05T13:28:16Z</time>
      </trkpt>
      <trkpt lat="61.6546471417" lon="8.67424291559">
        <ele>1346.94</ele>
        <time>2012-08-05T13:28:17Z</time>
      </trkpt>
      <trkpt lat="61.654659966" lon="8.67427049205">
        <ele>1346.94</ele>
        <time>2012-08-05T13:28:32Z</time>
      </trkpt>
      <trkpt lat="61.6546786577" lon="8.67422481067">
        <ele>1349.35</ele>
        <time>2012-08-05T13:28:43Z</time>
      </trkpt>
      <trkpt lat="61.6546804179" lon="8.67422112264">
        <ele>1349.35</ele>
        <time>2012-08-05T13:28:44Z</time>
      </trkpt>
      <trkpt lat="61.6546815075" lon="8.67423562333">
        <ele>1333.01</ele>
        <time>2012-08-05T13:28:49Z</time>
      </trkpt>
      <trkpt lat="61.6546809208" lon="8.67423579097">
        <ele>1350.31</ele>
        <time>2012-08-05T13:28:50Z</time>
      </trkpt>
      <trkpt lat="61.6546832677" lon="8.67422715761">
        <ele>1349.35</ele>
        <time>2012-08-05T13:28:51Z</time>
      </trkpt>
      <trkpt lat="61.6546920687" lon="8.67421559058">
        <ele>1346.94</ele>
        <time>2012-08-05T13:28:53Z</time>
      </trkpt>
      <trkpt lat="61.6546754725" lon="8.67424911819">
        <ele>1346.94</ele>
        <time>2012-08-05T13:29:17Z</time>
      </trkpt>
      <trkpt lat="61.6546862852" lon="8.67423520423">
        <ele>1346.94</ele>
        <time>2012-08-05T13:29:44Z</time>
      </trkpt>
      <trkpt lat="61.6546753887" lon="8.67426143959">
        <ele>1346.94</ele>
        <time>2012-08-05T13:30:13Z</time>
      </trkpt>
      <trkpt lat="61.6546791606" lon="8.67423201911">
        <ele>1346.46</ele>
        <time>2012-08-05T13:30:41Z</time>
      </trkpt>
      <trkpt lat="61.6546638217" lon="8.67428935133">
        <ele>1346.94</ele>
        <time>2012-08-05T13:31:14Z</time>
      </trkpt>
      <trkpt lat="61.6546526738" lon="8.67429345846">
        <ele>1346.46</ele>
        <time>2012-08-05T13:31:25Z</time>
      </trkpt>
      <trkpt lat="61.6546794958" lon="8.6742187757">
        <ele>1346.94</ele>
        <time>2012-08-05T13:31:51Z</time>
      </trkpt>
      <trkpt lat="61.6546708625" lon="8.67427795194">
        <ele>1346.94</ele>
        <time>2012-08-05T13:32:25Z</time>
      </trkpt>
      <trkpt lat="61.6546768136" lon="8.67425364442">
        <ele>1346.94</ele>
        <time>2012-08-05T13:32:59Z</time>
      </trkpt>
      <trkpt lat="61.6546848603" lon="8.67426789366">
        <ele>1346.46</ele>
        <time>2012-08-05T13:33:35Z</time>
      </trkpt>
      <trkpt lat="61.6547049768" lon="8.67421735078">
        <ele>1346.46</ele>
        <time>2012-08-05T13:34:08Z</time>
      </trkpt>
      <trkpt lat="61.6546789929" lon="8.67423746735">
        <ele>1346.46</ele>
        <time>2012-08-05T13:34:37Z</time>
      </trkpt>
      <trkpt lat="61.6546913981" lon="8.6742227152">
        <ele>1346.46</ele>
        <time>2012-08-05T13:35:14Z</time>
      </trkpt>
      <trkpt lat="61.6546925716" lon="8.67422430776">
        <ele>1345.98</ele>
        <time>2012-08-05T13:35:51Z</time>
      </trkpt>
      <trkpt lat="61.6546847764" lon="8.67424241267">
        <ele>1345.98</ele>
        <time>2012-08-05T13:36:29Z</time>
      </trkpt>
      <trkpt lat="61.6546762269" lon="8.67428398691">
        <ele>1345.98</ele>
        <time>2012-08-05T13:37:01Z</time>
      </trkpt>
      <trkpt lat="61.6546846088" lon="8.67424199358">
        <ele>1345.98</ele>
        <time>2012-08-05T13:37:39Z</time>
      </trkpt>
      <trkpt lat="61.6546768975" lon="8.6742240563">
        <ele>1345.98</ele>
        <time>2012-08-05T13:38:21Z</time>
      </trkpt>
      <trkpt lat="61.6546745505" lon="8.67426319979">
        <ele>1345.5</ele>
        <time>2012-08-05T13:38:56Z</time>
      </trkpt>
      <trkpt lat="61.6546839382" lon="8.67420461029">
        <ele>1345.98</ele>
        <time>2012-08-05T13:39:27Z</time>
      </trkpt>
      <trkpt lat="61.6546798311" lon="8.67423495278">
        <ele>1345.5</ele>
        <time>2012-08-05T13:39:57Z</time>
      </trkpt>
      <trkpt lat="61.6546921525" lon="8.67424819618">
        <ele>1345.5</ele>
        <time>2012-08-05T13:40:31Z</time>
      </trkpt>
      <trkpt lat="61.6546852794" lon="8.67422958836">
        <ele>1345.5</ele>
        <time>2012-08-05T13:41:01Z</time>
      </trkpt>
      <trkpt lat="61.6546737123" lon="8.67423729971">
        <ele>1345.5</ele>
        <time>2012-08-05T13:41:36Z</time>
      </trkpt>
      <trkpt lat="61.6546712816" lon="8.67423428223">
        <ele>1346.94</ele>
        <time>2012-08-05T13:42:11Z</time>
      </trkpt>
      <trkpt lat="61.654674802" lon="8.67425523698">
        <ele>1345.5</ele>
        <time>2012-08-05T13:42:40Z</time>
      </trkpt>
      <trkpt lat="61.6546753887" lon="8.67420653813">
        <ele>1345.5</ele>
        <time>2012-08-05T13:43:11Z</time>
      </trkpt>
      <trkpt lat="61.6546931583" lon="8.67423403077">
        <ele>1345.02</ele>
        <time>2012-08-05T13:43:48Z</time>
      </trkpt>
      <trkpt lat="61.6546709463" lon="8.67422422394">
        <ele>1345.02</ele>
        <time>2012-08-05T13:44:17Z</time>
      </trkpt>
      <trkpt lat="61.6546981875" lon="8.67414400913">
        <ele>1345.5</ele>
        <time>2012-08-05T13:44:45Z</time>
      </trkpt>
      <trkpt lat="61.6546893865" lon="8.67417678237">
        <ele>1345.5</ele>
        <time>2012-08-05T13:45:13Z</time>
      </trkpt>
      <trkpt lat="61.6546939965" lon="8.67418700829">
        <ele>1345.5</ele>
        <time>2012-08-05T13:45:49Z</time>
      </trkpt>
      <trkpt lat="61.6546582896" lon="8.67426638491">
        <ele>1345.5</ele>
        <time>2012-08-05T13:46:16Z</time>
      </trkpt>
      <trkpt lat="61.6546732094" lon="8.67421978153">
        <ele>1345.5</ele>
        <time>2012-08-05T13:46:45Z</time>
      </trkpt>
      <trkpt lat="61.654667845" lon="8.67423394695">
        <ele>1345.5</ele>
        <time>2012-08-05T13:47:19Z</time>
      </trkpt>
      <trkpt lat="61.6546815075" lon="8.67422522977">
        <ele>1345.02</ele>
        <time>2012-08-05T13:47:48Z</time>
      </trkpt>
      <trkpt lat="61.6546634026" lon="8.67422003299">
        <ele>1345.02</ele>
        <time>2012-08-05T13:48:21Z</time>
      </trkpt>
      <trkpt lat="61.6546825133" lon="8.67421416566">
        <ele>1345.5</ele>
        <time>2012-08-05T13:48:49Z</time>
      </trkpt>
      <trkpt lat="61.6546514165" lon="8.67425691336">
        <ele>1345.02</ele>
        <time>2012-08-05T13:49:21Z</time>
      </trkpt>
      <trkpt lat="61.6546617262" lon="8.67421282455">
        <ele>1345.5</ele>
        <time>2012-08-05T13:49:50Z</time>
      </trkpt>
      <trkpt lat="61.6546447109" lon="8.67426839657">
        <ele>1345.02</ele>
        <time>2012-08-05T13:50:19Z</time>
      </trkpt>
      <trkpt lat="61.654664157" lon="8.67423059419">
        <ele>1345.02</ele>
        <time>2012-08-05T13:50:53Z</time>
      </trkpt>
      <trkpt lat="61.6546602175" lon="8.67420544848">
        <ele>1345.5</ele>
        <time>2012-08-05T13:51:20Z</time>
      </trkpt>
      <trkpt lat="61.6546746343" lon="8.67420813069">
        <ele>1345.5</ele>
        <time>2012-08-05T13:51:50Z</time>
      </trkpt>
      <trkpt lat="61.6546976846" lon="8.67417527363">
        <ele>1345.5</ele>
        <time>2012-08-05T13:52:23Z</time>
      </trkpt>
      <trkpt lat="61.6546895541" lon="8.67417879403">
        <ele>1345.02</ele>
        <time>2012-08-05T13:52:56Z</time>
      </trkpt>
      <trkpt lat="61.6546799149" lon="8.67420050316">
        <ele>1345.02</ele>
        <time>2012-08-05T13:53:30Z</time>
      </trkpt>
      <trkpt lat="61.6546938289" lon="8.67416529916">
        <ele>1345.02</ele>
        <time>2012-08-05T13:54:04Z</time>
      </trkpt>
      <trkpt lat="61.6546545178" lon="8.67423713207">
        <ele>1344.54</ele>
        <time>2012-08-05T13:54:39Z</time>
      </trkpt>
      <trkpt lat="61.6546682641" lon="8.67418348789">
        <ele>1344.54</ele>
        <time>2012-08-05T13:55:09Z</time>
      </trkpt>
      <trkpt lat="61.6546716169" lon="8.67424115539">
        <ele>1344.06</ele>
        <time>2012-08-05T13:55:38Z</time>
      </trkpt>
      <trkpt lat="61.6546893027" lon="8.67424853146">
        <ele>1344.06</ele>
        <time>2012-08-05T13:56:14Z</time>
      </trkpt>
      <trkpt lat="61.6546776518" lon="8.67424635217">
        <ele>1344.06</ele>
        <time>2012-08-05T13:56:48Z</time>
      </trkpt>
      <trkpt lat="61.6546727065" lon="8.67421508767">
        <ele>1344.06</ele>
        <time>2012-08-05T13:57:21Z</time>
      </trkpt>
      <trkpt lat="61.6546760593" lon="8.67427049205">
        <ele>1344.06</ele>
        <time>2012-08-05T13:57:45Z</time>
      </trkpt>
      <trkpt lat="61.6547403485" lon="8.67425565608">
        <ele>1344.06</ele>
        <time>2012-08-05T13:58:11Z</time>
      </trkpt>
      <trkpt lat="61.6547194775" lon="8.6742663011">
        <ele>1344.06</ele>
        <time>2012-08-05T13:58:45Z</time>
      </trkpt>
      <trkpt lat="61.6546885483" lon="8.67425590754">
        <ele>1344.06</ele>
        <time>2012-08-05T13:59:10Z</time>
      </trkpt>
      <trkpt lat="61.6547131073" lon="8.67428499274">
        <ele>1344.06</ele>
        <time>2012-08-05T13:59:44Z</time>
      </trkpt>
      <trkpt lat="61.6547232494" lon="8.67429530248">
        <ele>1344.06</ele>
        <time>2012-08-05T14:00:21Z</time>
      </trkpt>
      <trkpt lat="61.6546939127" lon="8.67422615178">
        <ele>1344.54</ele>
        <time>2012-08-05T14:00:55Z</time>
      </trkpt>
      <trkpt lat="61.6546949185" lon="8.67421726696">
        <ele>1344.06</ele>
        <time>2012-08-05T14:01:24Z</time>
      </trkpt>
      <trkpt lat="61.6547119338" lon="8.67421953008">
        <ele>1341.18</ele>
        <time>2012-08-05T14:01:43Z</time>
      </trkpt>
      <trkpt lat="61.654708162" lon="8.67420947179">
        <ele>1348.39</ele>
        <time>2012-08-05T14:01:44Z</time>
      </trkpt>
      <trkpt lat="61.6546987742" lon="8.67422514595">
        <ele>1344.54</ele>
        <time>2012-08-05T14:01:45Z</time>
      </trkpt>
      <trkpt lat="61.654704893" lon="8.67423654534">
        <ele>1342.62</ele>
        <time>2012-08-05T14:01:47Z</time>
      </trkpt>
      <trkpt lat="61.6547011212" lon="8.67423763499">
        <ele>1341.66</ele>
        <time>2012-08-05T14:01:49Z</time>
      </trkpt>
      <trkpt lat="61.6546992771" lon="8.674238557">
        <ele>1345.02</ele>
        <time>2012-08-05T14:01:51Z</time>
      </trkpt>
      <trkpt lat="61.654697014" lon="8.67423662916">
        <ele>1348.87</ele>
        <time>2012-08-05T14:01:55Z</time>
      </trkpt>
      <trkpt lat="61.6546934098" lon="8.67424618453">
        <ele>1345.02</ele>
        <time>2012-08-05T14:01:56Z</time>
      </trkpt>
      <trkpt lat="61.6546851117" lon="8.67424450815">
        <ele>1342.62</ele>
        <time>2012-08-05T14:01:58Z</time>
      </trkpt>
      <trkpt lat="61.6546861175" lon="8.67424811237">
        <ele>1338.29</ele>
        <time>2012-08-05T14:01:59Z</time>
      </trkpt>
      <trkpt lat="61.6546798311" lon="8.6742663011">
        <ele>1345.02</ele>
        <time>2012-08-05T14:02:00Z</time>
      </trkpt>
      <trkpt lat="61.6546794958" lon="8.6742764432">
        <ele>1352.71</ele>
        <time>2012-08-05T14:02:01Z</time>
      </trkpt>
      <trkpt lat="61.6546820104" lon="8.67427971214">
        <ele>1342.62</ele>
        <time>2012-08-05T14:02:02Z</time>
      </trkpt>
      <trkpt lat="61.6546848603" lon="8.67427929305">
        <ele>1345.5</ele>
        <time>2012-08-05T14:02:04Z</time>
      </trkpt>
      <trkpt lat="61.6546975169" lon="8.67423696443">
        <ele>1343.58</ele>
        <time>2012-08-05T14:02:32Z</time>
      </trkpt>
      <trkpt lat="61.6547050606" lon="8.67426043376">
        <ele>1357.04</ele>
        <time>2012-08-05T14:02:59Z</time>
      </trkpt>
      <trkpt lat="61.654704893" lon="8.674265882">
        <ele>1346.94</ele>
        <time>2012-08-05T14:03:00Z</time>
      </trkpt>
      <trkpt lat="61.6547053959" lon="8.67425984703">
        <ele>1343.58</ele>
        <time>2012-08-05T14:03:01Z</time>
      </trkpt>
      <trkpt lat="61.6547097545" lon="8.67426244542">
        <ele>1345.02</ele>
        <time>2012-08-05T14:03:08Z</time>
      </trkpt>
      <trkpt lat="61.6547090001" lon="8.67425892502">
        <ele>1349.83</ele>
        <time>2012-08-05T14:03:16Z</time>
      </trkpt>
      <trkpt lat="61.6547110956" lon="8.67425934412">
        <ele>1348.39</ele>
        <time>2012-08-05T14:03:17Z</time>
      </trkpt>
      <trkpt lat="61.6547121014" lon="8.67425414734">
        <ele>1345.5</ele>
        <time>2012-08-05T14:03:18Z</time>
      </trkpt>
      <trkpt lat="61.6547130235" lon="8.67424710654">
        <ele>1345.02</ele>
        <time>2012-08-05T14:03:19Z</time>
      </trkpt>
      <trkpt lat="61.6547043063" lon="8.67425808683">
        <ele>1341.18</ele>
        <time>2012-08-05T14:03:23Z</time>
      </trkpt>
      <trkpt lat="61.6547061503" lon="8.67424601689">
        <ele>1344.54</ele>
        <time>2012-08-05T14:03:24Z</time>
      </trkpt>
      <trkpt lat="61.6547062341" lon="8.67424987257">
        <ele>1349.35</ele>
        <time>2012-08-05T14:03:25Z</time>
      </trkpt>
      <trkpt lat="61.6547071561" lon="8.67431885563">
        <ele>1339.25</ele>
        <time>2012-08-05T14:03:28Z</time>
      </trkpt>
      <trkpt lat="61.6547079943" lon="8.67431977764">
        <ele>1347.43</ele>
        <time>2012-08-05T14:03:29Z</time>
      </trkpt>
      <trkpt lat="61.654708162" lon="8.67430955172">
        <ele>1347.43</ele>
        <time>2012-08-05T14:03:30Z</time>
      </trkpt>
      <trkpt lat="61.6547058988" lon="8.6743002478">
        <ele>1343.58</ele>
        <time>2012-08-05T14:03:31Z</time>
      </trkpt>
      <trkpt lat="61.6547063179" lon="8.67429329082">
        <ele>1346.94</ele>
        <time>2012-08-05T14:03:32Z</time>
      </trkpt>
      <trkpt lat="61.6547054797" lon="8.67432413623">
        <ele>1340.7</ele>
        <time>2012-08-05T14:03:34Z</time>
      </trkpt>
      <trkpt lat="61.6546981875" lon="8.67433528416">
        <ele>1345.98</ele>
        <time>2012-08-05T14:03:35Z</time>
      </trkpt>
      <trkpt lat="61.654677568" lon="8.67431810126">
        <ele>1342.62</ele>
        <time>2012-08-05T14:03:43Z</time>
      </trkpt>
      <trkpt lat="61.6546774004" lon="8.6743160896">
        <ele>1342.62</ele>
        <time>2012-08-05T14:03:44Z</time>
      </trkpt>
      <trkpt lat="61.6546820104" lon="8.67430795915">
        <ele>1344.54</ele>
        <time>2012-08-05T14:03:49Z</time>
      </trkpt>
      <trkpt lat="61.6546934936" lon="8.6743301712">
        <ele>1344.54</ele>
        <time>2012-08-05T14:04:12Z</time>
      </trkpt>
      <trkpt lat="61.6547035519" lon="8.67423319258">
        <ele>1344.54</ele>
        <time>2012-08-05T14:04:48Z</time>
      </trkpt>
      <trkpt lat="61.6546802502" lon="8.6742553208">
        <ele>1344.54</ele>
        <time>2012-08-05T14:05:15Z</time>
      </trkpt>
      <trkpt lat="61.6546935774" lon="8.67424308322">
        <ele>1344.54</ele>
        <time>2012-08-05T14:05:38Z</time>
      </trkpt>
      <trkpt lat="61.6546620615" lon="8.6742178537">
        <ele>1345.02</ele>
        <time>2012-08-05T14:06:02Z</time>
      </trkpt>
      <trkpt lat="61.6546613071" lon="8.67429278791">
        <ele>1345.02</ele>
        <time>2012-08-05T14:06:25Z</time>
      </trkpt>
      <trkpt lat="61.6546865366" lon="8.6742108129">
        <ele>1345.02</ele>
        <time>2012-08-05T14:06:51Z</time>
      </trkpt>
      <trkpt lat="61.6546970978" lon="8.67418332025">
        <ele>1345.02</ele>
        <time>2012-08-05T14:07:15Z</time>
      </trkpt>
      <trkpt lat="61.6546665039" lon="8.6743227113">
        <ele>1345.02</ele>
        <time>2012-08-05T14:07:35Z</time>
      </trkpt>
      <trkpt lat="61.6545720398" lon="8.67449219339">
        <ele>1344.54</ele>
        <time>2012-08-05T14:07:45Z</time>
      </trkpt>
      <trkpt lat="61.6547159571" lon="8.67423294112">
        <ele>1333.49</ele>
        <time>2012-08-05T14:08:00Z</time>
      </trkpt>
      <trkpt lat="61.6547133587" lon="8.67422925308">
        <ele>1344.54</ele>
        <time>2012-08-05T14:08:01Z</time>
      </trkpt>
      <trkpt lat="61.6546698567" lon="8.67423654534">
        <ele>1353.67</ele>
        <time>2012-08-05T14:08:25Z</time>
      </trkpt>
      <trkpt lat="61.6546666715" lon="8.67423964664">
        <ele>1347.43</ele>
        <time>2012-08-05T14:08:26Z</time>
      </trkpt>
      <trkpt lat="61.6546628159" lon="8.67423277348">
        <ele>1344.06</ele>
        <time>2012-08-05T14:08:28Z</time>
      </trkpt>
      <trkpt lat="61.6546566971" lon="8.67423444986">
        <ele>1345.5</ele>
        <time>2012-08-05T14:08:43Z</time>
      </trkpt>
      <trkpt lat="61.6546525899" lon="8.67425691336">
        <ele>1345.02</ele>
        <time>2012-08-05T14:08:57Z</time>
      </trkpt>
      <trkpt lat="61.6546555236" lon="8.67426730692">
        <ele>1345.02</ele>
        <time>2012-08-05T14:09:06Z</time>
      </trkpt>
      <trkpt lat="61.6546665039" lon="8.67427459918">
        <ele>1344.54</ele>
        <time>2012-08-05T14:09:14Z</time>
      </trkpt>
      <trkpt lat="61.6546603013" lon="8.6742332764">
        <ele>1345.02</ele>
        <time>2012-08-05T14:09:17Z</time>
      </trkpt>
      <trkpt lat="61.6546498239" lon="8.67416161112">
        <ele>1344.54</ele>
        <time>2012-08-05T14:09:30Z</time>
      </trkpt>
      <trkpt lat="61.6546186432" lon="8.67415473796">
        <ele>1345.02</ele>
        <time>2012-08-05T14:09:34Z</time>
      </trkpt>
      <trkpt lat="61.6545194853" lon="8.67423134856">
        <ele>1342.14</ele>
        <time>2012-08-05T14:09:44Z</time>
      </trkpt>
      <trkpt lat="61.6544887237" lon="8.67425858974">
        <ele>1344.06</ele>
        <time>2012-08-05T14:09:47Z</time>
      </trkpt>
      <trkpt lat="61.6543688625" lon="8.6743403133">
        <ele>1342.14</ele>
        <time>2012-08-05T14:09:58Z</time>
      </trkpt>
      <trkpt lat="61.6543062497" lon="8.67429178208">
        <ele>1342.14</ele>
        <time>2012-08-05T14:10:03Z</time>
      </trkpt>
      <trkpt lat="61.6542859655" lon="8.67427409627">
        <ele>1341.66</ele>
        <time>2012-08-05T14:10:05Z</time>
      </trkpt>
      <trkpt lat="61.6542454809" lon="8.67421047762">
        <ele>1341.18</ele>
        <time>2012-08-05T14:10:11Z</time>
      </trkpt>
      <trkpt lat="61.6542888153" lon="8.67414719425">
        <ele>1341.66</ele>
        <time>2012-08-05T14:10:41Z</time>
      </trkpt>
      <trkpt lat="61.6542745661" lon="8.67415557615">
        <ele>1343.1</ele>
        <time>2012-08-05T14:10:47Z</time>
      </trkpt>
      <trkpt lat="61.6543389391" lon="8.67430469021">
        <ele>1341.18</ele>
        <time>2012-08-05T14:10:56Z</time>
      </trkpt>
      <trkpt lat="61.6543664318" lon="8.6743244715">
        <ele>1343.1</ele>
        <time>2012-08-05T14:10:58Z</time>
      </trkpt>
      <trkpt lat="61.6544040665" lon="8.67431189865">
        <ele>1342.14</ele>
        <time>2012-08-05T14:11:03Z</time>
      </trkpt>
      <trkpt lat="61.6544484906" lon="8.67426261306">
        <ele>1343.58</ele>
        <time>2012-08-05T14:11:09Z</time>
      </trkpt>
      <trkpt lat="61.6544748936" lon="8.67425590754">
        <ele>1343.58</ele>
        <time>2012-08-05T14:11:11Z</time>
      </trkpt>
      <trkpt lat="61.6545872949" lon="8.67413730361">
        <ele>1345.5</ele>
        <time>2012-08-05T14:11:21Z</time>
      </trkpt>
      <trkpt lat="61.6546391789" lon="8.67414878681">
        <ele>1345.02</ele>
        <time>2012-08-05T14:11:26Z</time>
      </trkpt>
      <trkpt lat="61.654675724" lon="8.67422522977">
        <ele>1345.98</ele>
        <time>2012-08-05T14:11:30Z</time>
      </trkpt>
      <trkpt lat="61.6546823457" lon="8.67426043376">
        <ele>1344.54</ele>
        <time>2012-08-05T14:11:33Z</time>
      </trkpt>
      <trkpt lat="61.6546966787" lon="8.67432413623">
        <ele>1345.98</ele>
        <time>2012-08-05T14:11:39Z</time>
      </trkpt>
      <trkpt lat="61.6546867043" lon="8.67428557947">
        <ele>1345.98</ele>
        <time>2012-08-05T14:11:42Z</time>
      </trkpt>
      <trkpt lat="61.6546632349" lon="8.67426328361">
        <ele>1345.5</ele>
        <time>2012-08-05T14:11:55Z</time>
      </trkpt>
      <trkpt lat="61.6546375863" lon="8.67420100607">
        <ele>1349.35</ele>
        <time>2012-08-05T14:12:13Z</time>
      </trkpt>
      <trkpt lat="61.654636832" lon="8.67420519702">
        <ele>1348.87</ele>
        <time>2012-08-05T14:12:14Z</time>
      </trkpt>
      <trkpt lat="61.6546429507" lon="8.67422807962">
        <ele>1345.98</ele>
        <time>2012-08-05T14:12:15Z</time>
      </trkpt>
      <trkpt lat="61.6546433698" lon="8.67423210293">
        <ele>1341.18</ele>
        <time>2012-08-05T14:12:17Z</time>
      </trkpt>
      <trkpt lat="61.6546439566" lon="8.67422305048">
        <ele>1350.31</ele>
        <time>2012-08-05T14:12:18Z</time>
      </trkpt>
      <trkpt lat="61.6546471417" lon="8.67420804687">
        <ele>1345.98</ele>
        <time>2012-08-05T14:12:19Z</time>
      </trkpt>
      <trkpt lat="61.6546378378" lon="8.67415264249">
        <ele>1345.98</ele>
        <time>2012-08-05T14:12:42Z</time>
      </trkpt>
      <trkpt lat="61.6546292044" lon="8.67417820729">
        <ele>1345.98</ele>
        <time>2012-08-05T14:13:02Z</time>
      </trkpt>
      <trkpt lat="61.6546338983" lon="8.6741637066">
        <ele>1344.06</ele>
        <time>2012-08-05T14:13:05Z</time>
      </trkpt>
      <trkpt lat="61.6546486504" lon="8.67422615178">
        <ele>1348.39</ele>
        <time>2012-08-05T14:13:11Z</time>
      </trkpt>
      <trkpt lat="61.6546566132" lon="8.6742381379">
        <ele>1345.02</ele>
        <time>2012-08-05T14:13:12Z</time>
      </trkpt>
      <trkpt lat="61.6546660848" lon="8.67424333468">
        <ele>1346.94</ele>
        <time>2012-08-05T14:13:15Z</time>
      </trkpt>
      <trkpt lat="61.6546574514" lon="8.6742279958">
        <ele>1345.98</ele>
        <time>2012-08-05T14:13:27Z</time>
      </trkpt>
      <trkpt lat="61.6546500754" lon="8.67423629388">
        <ele>1345.98</ele>
        <time>2012-08-05T14:13:53Z</time>
      </trkpt>
      <trkpt lat="61.6546879616" lon="8.67427853867">
        <ele>1345.98</ele>
        <time>2012-08-05T14:14:08Z</time>
      </trkpt>
      <trkpt lat="61.6546829324" lon="8.6742610205">
        <ele>1345.5</ele>
        <time>2012-08-05T14:14:24Z</time>
      </trkpt>
      <trkpt lat="61.6546559427" lon="8.67419840768">
        <ele>1342.14</ele>
        <time>2012-08-05T14:14:38Z</time>
      </trkpt>
      <trkpt lat="61.6546577867" lon="8.67419463582">
        <ele>1346.46</ele>
        <time>2012-08-05T14:14:39Z</time>
      </trkpt>
      <trkpt lat="61.6546567809" lon="8.67423947901">
        <ele>1339.73</ele>
        <time>2012-08-05T14:14:56Z</time>
      </trkpt>
      <trkpt lat="61.6546588764" lon="8.6742451787">
        <ele>1346.46</ele>
        <time>2012-08-05T14:14:57Z</time>
      </trkpt>
      <trkpt lat="61.654653931" lon="8.67426604964">
        <ele>1345.98</ele>
        <time>2012-08-05T14:15:09Z</time>
      </trkpt>
      <trkpt lat="61.6546563618" lon="8.67420578375">
        <ele>1346.46</ele>
        <time>2012-08-05T14:15:33Z</time>
      </trkpt>
      <trkpt lat="61.6546514165" lon="8.67423646152">
        <ele>1345.02</ele>
        <time>2012-08-05T14:15:50Z</time>
      </trkpt>
      <trkpt lat="61.6546535958" lon="8.67422883399">
        <ele>1348.39</ele>
        <time>2012-08-05T14:15:52Z</time>
      </trkpt>
      <trkpt lat="61.6546525899" lon="8.67423092946">
        <ele>1347.43</ele>
        <time>2012-08-05T14:15:53Z</time>
      </trkpt>
      <trkpt lat="61.6546566971" lon="8.67424182594">
        <ele>1345.98</ele>
        <time>2012-08-05T14:16:09Z</time>
      </trkpt>
      <trkpt lat="61.6546551045" lon="8.67427091114">
        <ele>1345.5</ele>
        <time>2012-08-05T14:16:28Z</time>
      </trkpt>
      <trkpt lat="61.6546583734" lon="8.67425423115">
        <ele>1346.46</ele>
        <time>2012-08-05T14:16:30Z</time>
      </trkpt>
      <trkpt lat="61.6546491534" lon="8.67423361167">
        <ele>1346.46</ele>
        <time>2012-08-05T14:16:46Z</time>
      </trkpt>
      <trkpt lat="61.6546403524" lon="8.67427317426">
        <ele>1345.98</ele>
        <time>2012-08-05T14:17:02Z</time>
      </trkpt>
      <trkpt lat="61.6546420287" lon="8.67425724864">
        <ele>1342.14</ele>
        <time>2012-08-05T14:17:10Z</time>
      </trkpt>
      <trkpt lat="61.6546410229" lon="8.67425641045">
        <ele>1342.14</ele>
        <time>2012-08-05T14:17:11Z</time>
      </trkpt>
      <trkpt lat="61.65464052" lon="8.67426034994">
        <ele>1349.35</ele>
        <time>2012-08-05T14:17:12Z</time>
      </trkpt>
      <trkpt lat="61.6546411905" lon="8.67425490171">
        <ele>1345.5</ele>
        <time>2012-08-05T14:17:13Z</time>
      </trkpt>
      <trkpt lat="61.6546746343" lon="8.67421693169">
        <ele>1346.94</ele>
        <time>2012-08-05T14:17:27Z</time>
      </trkpt>
      <trkpt lat="61.654701205" lon="8.67421927862">
        <ele>1346.46</ele>
        <time>2012-08-05T14:17:40Z</time>
      </trkpt>
      <trkpt lat="61.6547201481" lon="8.67426160723">
        <ele>1348.39</ele>
        <time>2012-08-05T14:17:45Z</time>
      </trkpt>
      <trkpt lat="61.6547233332" lon="8.6742887646">
        <ele>1347.43</ele>
        <time>2012-08-05T14:17:47Z</time>
      </trkpt>
      <trkpt lat="61.6547390912" lon="8.67432044819">
        <ele>1346.94</ele>
        <time>2012-08-05T14:18:01Z</time>
      </trkpt>
      <trkpt lat="61.6547341458" lon="8.67433025502">
        <ele>1346.46</ele>
        <time>2012-08-05T14:18:23Z</time>
      </trkpt>
      <trkpt lat="61.6547286976" lon="8.67424936965">
        <ele>1347.43</ele>
        <time>2012-08-05T14:18:34Z</time>
      </trkpt>
      <trkpt lat="61.6547411866" lon="8.67425012402">
        <ele>1347.43</ele>
        <time>2012-08-05T14:18:58Z</time>
      </trkpt>
      <trkpt lat="61.6547465511" lon="8.67427887395">
        <ele>1347.43</ele>
        <time>2012-08-05T14:19:16Z</time>
      </trkpt>
      <trkpt lat="61.654734062" lon="8.67416529916">
        <ele>1349.35</ele>
        <time>2012-08-05T14:19:32Z</time>
      </trkpt>
      <trkpt lat="61.654737331" lon="8.6740650516">
        <ele>1347.91</ele>
        <time>2012-08-05T14:19:36Z</time>
      </trkpt>
      <trkpt lat="61.6547430307" lon="8.67400612682">
        <ele>1347.43</ele>
        <time>2012-08-05T14:19:39Z</time>
      </trkpt>
      <trkpt lat="61.6547205672" lon="8.67391141132">
        <ele>1347.91</ele>
        <time>2012-08-05T14:19:45Z</time>
      </trkpt>
      <trkpt lat="61.6546638217" lon="8.67378023453">
        <ele>1347.91</ele>
        <time>2012-08-05T14:20:00Z</time>
      </trkpt>
      <trkpt lat="61.6546782386" lon="8.67382172495">
        <ele>1348.39</ele>
        <time>2012-08-05T14:20:06Z</time>
      </trkpt>
      <trkpt lat="61.6546644084" lon="8.67381242104">
        <ele>1339.73</ele>
        <time>2012-08-05T14:20:13Z</time>
      </trkpt>
      <trkpt lat="61.6546622291" lon="8.67380445823">
        <ele>1345.98</ele>
        <time>2012-08-05T14:20:14Z</time>
      </trkpt>
      <trkpt lat="61.6546616424" lon="8.67380479351">
        <ele>1355.12</ele>
        <time>2012-08-05T14:20:15Z</time>
      </trkpt>
      <trkpt lat="61.6546611395" lon="8.67379917763">
        <ele>1349.35</ele>
        <time>2012-08-05T14:20:16Z</time>
      </trkpt>
      <trkpt lat="61.654681759" lon="8.6737514846">
        <ele>1347.91</ele>
        <time>2012-08-05T14:20:31Z</time>
      </trkpt>
      <trkpt lat="61.6546660848" lon="8.67374209687">
        <ele>1348.39</ele>
        <time>2012-08-05T14:20:51Z</time>
      </trkpt>
      <trkpt lat="61.6546742152" lon="8.67378174327">
        <ele>1347.91</ele>
        <time>2012-08-05T14:21:08Z</time>
      </trkpt>
      <trkpt lat="61.6546831839" lon="8.67376045324">
        <ele>1347.91</ele>
        <time>2012-08-05T14:21:31Z</time>
      </trkpt>
      <trkpt lat="61.6546885483" lon="8.67377378047">
        <ele>1348.39</ele>
        <time>2012-08-05T14:21:57Z</time>
      </trkpt>
      <trkpt lat="61.6546270251" lon="8.6736620497">
        <ele>1348.39</ele>
        <time>2012-08-05T14:22:11Z</time>
      </trkpt>
      <trkpt lat="61.6545769013" lon="8.67354679853">
        <ele>1347.43</ele>
        <time>2012-08-05T14:22:23Z</time>
      </trkpt>
      <trkpt lat="61.6544466466" lon="8.67335954681">
        <ele>1347.43</ele>
        <time>2012-08-05T14:22:37Z</time>
      </trkpt>
      <trkpt lat="61.6543407831" lon="8.67321277969">
        <ele>1347.43</ele>
        <time>2012-08-05T14:22:49Z</time>
      </trkpt>
      <trkpt lat="61.65426258" lon="8.67306634784">
        <ele>1346.94</ele>
        <time>2012-08-05T14:23:00Z</time>
      </trkpt>
      <trkpt lat="61.6542375181" lon="8.67298412137">
        <ele>1345.98</ele>
        <time>2012-08-05T14:23:04Z</time>
      </trkpt>
      <trkpt lat="61.6541738994" lon="8.67287633009">
        <ele>1346.46</ele>
        <time>2012-08-05T14:23:12Z</time>
      </trkpt>
      <trkpt lat="61.6540552955" lon="8.67264582776">
        <ele>1345.02</ele>
        <time>2012-08-05T14:23:26Z</time>
      </trkpt>
      <trkpt lat="61.6539511085" lon="8.67245044559">
        <ele>1345.98</ele>
        <time>2012-08-05T14:23:39Z</time>
      </trkpt>
      <trkpt lat="61.6538388748" lon="8.67226663046">
        <ele>1344.54</ele>
        <time>2012-08-05T14:23:52Z</time>
      </trkpt>
      <trkpt lat="61.65368733" lon="8.67207024246">
        <ele>1345.98</ele>
        <time>2012-08-05T14:24:08Z</time>
      </trkpt>
      <trkpt lat="61.653651204" lon="8.67200913839">
        <ele>1345.5</ele>
        <time>2012-08-05T14:24:13Z</time>
      </trkpt>
      <trkpt lat="61.6535913572" lon="8.67194233462">
        <ele>1346.94</ele>
        <time>2012-08-05T14:24:19Z</time>
      </trkpt>
      <trkpt lat="61.6534662992" lon="8.67177008651">
        <ele>1346.94</ele>
        <time>2012-08-05T14:24:32Z</time>
      </trkpt>
      <trkpt lat="61.6533911135" lon="8.67169247009">
        <ele>1345.98</ele>
        <time>2012-08-05T14:24:41Z</time>
      </trkpt>
      <trkpt lat="61.6532068793" lon="8.67150404491">
        <ele>1346.46</ele>
        <time>2012-08-05T14:24:58Z</time>
      </trkpt>
      <trkpt lat="61.6530658118" lon="8.67131620646">
        <ele>1346.46</ele>
        <time>2012-08-05T14:25:12Z</time>
      </trkpt>
      <trkpt lat="61.6529358923" lon="8.67112501524">
        <ele>1346.46</ele>
        <time>2012-08-05T14:25:25Z</time>
      </trkpt>
      <trkpt lat="61.6527984291" lon="8.67092192173">
        <ele>1346.46</ele>
        <time>2012-08-05T14:25:40Z</time>
      </trkpt>
      <trkpt lat="61.6526167095" lon="8.67073148489">
        <ele>1346.46</ele>
        <time>2012-08-05T14:25:58Z</time>
      </trkpt>
      <trkpt lat="61.6524522565" lon="8.67063299753">
        <ele>1346.94</ele>
        <time>2012-08-05T14:26:13Z</time>
      </trkpt>
      <trkpt lat="61.6523397714" lon="8.67053207941">
        <ele>1346.46</ele>
        <time>2012-08-05T14:26:25Z</time>
      </trkpt>
      <trkpt lat="61.6521957703" lon="8.6703875754">
        <ele>1347.43</ele>
        <time>2012-08-05T14:26:39Z</time>
      </trkpt>
      <trkpt lat="61.6520485841" lon="8.67024525069">
        <ele>1346.46</ele>
        <time>2012-08-05T14:26:55Z</time>
      </trkpt>
      <trkpt lat="61.6518902499" lon="8.6700554844">
        <ele>1348.39</ele>
        <time>2012-08-05T14:27:10Z</time>
      </trkpt>
      <trkpt lat="61.6517437343" lon="8.66992355324">
        <ele>1346.94</ele>
        <time>2012-08-05T14:27:24Z</time>
      </trkpt>
      <trkpt lat="61.6517135594" lon="8.66989664733">
        <ele>1348.39</ele>
        <time>2012-08-05T14:27:27Z</time>
      </trkpt>
      <trkpt lat="61.6516356077" lon="8.66982674226">
        <ele>1347.91</ele>
        <time>2012-08-05T14:27:34Z</time>
      </trkpt>
      <trkpt lat="61.6515758447" lon="8.66975650191">
        <ele>1348.87</ele>
        <time>2012-08-05T14:27:42Z</time>
      </trkpt>
      <trkpt lat="61.6514323466" lon="8.66960654967">
        <ele>1348.87</ele>
        <time>2012-08-05T14:27:55Z</time>
      </trkpt>
      <trkpt lat="61.651373757" lon="8.66958006285">
        <ele>1348.39</ele>
        <time>2012-08-05T14:28:01Z</time>
      </trkpt>
      <trkpt lat="61.6512975655" lon="8.66947579198">
        <ele>1348.87</ele>
        <time>2012-08-05T14:28:14Z</time>
      </trkpt>
      <trkpt lat="61.6512470227" lon="8.66948182695">
        <ele>1349.35</ele>
        <time>2012-08-05T14:28:36Z</time>
      </trkpt>
      <trkpt lat="61.6511632875" lon="8.66940530017">
        <ele>1348.87</ele>
        <time>2012-08-05T14:28:44Z</time>
      </trkpt>
      <trkpt lat="61.651099585" lon="8.66937420331">
        <ele>1349.35</ele>
        <time>2012-08-05T14:28:51Z</time>
      </trkpt>
      <trkpt lat="61.6510679852" lon="8.66933665238">
        <ele>1349.83</ele>
        <time>2012-08-05T14:28:55Z</time>
      </trkpt>
      <trkpt lat="61.6509407479" lon="8.66922726855">
        <ele>1350.31</ele>
        <time>2012-08-05T14:29:08Z</time>
      </trkpt>
      <trkpt lat="61.650890708" lon="8.66919248365">
        <ele>1350.79</ele>
        <time>2012-08-05T14:29:12Z</time>
      </trkpt>
      <trkpt lat="61.6508149356" lon="8.66909106262">
        <ele>1351.27</ele>
        <time>2012-08-05T14:29:20Z</time>
      </trkpt>
      <trkpt lat="61.65073229" lon="8.66902199574">
        <ele>1350.31</ele>
        <time>2012-08-05T14:29:28Z</time>
      </trkpt>
      <trkpt lat="61.6506908834" lon="8.66898151115">
        <ele>1351.27</ele>
        <time>2012-08-05T14:29:32Z</time>
      </trkpt>
      <trkpt lat="61.6505351476" lon="8.66884027608">
        <ele>1352.23</ele>
        <time>2012-08-05T14:29:47Z</time>
      </trkpt>
      <trkpt lat="61.6504193936" lon="8.66869225167">
        <ele>1352.23</ele>
        <time>2012-08-05T14:30:00Z</time>
      </trkpt>
      <trkpt lat="61.6503081657" lon="8.66860306822">
        <ele>1354.15</ele>
        <time>2012-08-05T14:30:09Z</time>
      </trkpt>
      <trkpt lat="61.6502877139" lon="8.66854414344">
        <ele>1350.79</ele>
        <time>2012-08-05T14:30:20Z</time>
      </trkpt>
      <trkpt lat="61.6502758954" lon="8.66853509098">
        <ele>1354.63</ele>
        <time>2012-08-05T14:30:22Z</time>
      </trkpt>
      <trkpt lat="61.6502598021" lon="8.66852981038">
        <ele>1354.15</ele>
        <time>2012-08-05T14:30:23Z</time>
      </trkpt>
      <trkpt lat="61.6501778271" lon="8.6684691254">
        <ele>1354.15</ele>
        <time>2012-08-05T14:30:32Z</time>
      </trkpt>
      <trkpt lat="61.6500498354" lon="8.6683603283">
        <ele>1354.63</ele>
        <time>2012-08-05T14:30:46Z</time>
      </trkpt>
      <trkpt lat="61.6500048246" lon="8.66827717982">
        <ele>1353.67</ele>
        <time>2012-08-05T14:30:55Z</time>
      </trkpt>
      <trkpt lat="61.649987055" lon="8.66818673909">
        <ele>1352.71</ele>
        <time>2012-08-05T14:30:59Z</time>
      </trkpt>
      <trkpt lat="61.6498687025" lon="8.66784224287">
        <ele>1354.15</ele>
        <time>2012-08-05T14:31:15Z</time>
      </trkpt>
      <trkpt lat="61.6498257034" lon="8.66768650711">
        <ele>1354.63</ele>
        <time>2012-08-05T14:31:24Z</time>
      </trkpt>
      <trkpt lat="61.6498164833" lon="8.66764501669">
        <ele>1353.67</ele>
        <time>2012-08-05T14:31:26Z</time>
      </trkpt>
      <trkpt lat="61.6498024855" lon="8.66760863923">
        <ele>1355.12</ele>
        <time>2012-08-05T14:31:39Z</time>
      </trkpt>
      <trkpt lat="61.6497927625" lon="8.66761283018">
        <ele>1354.15</ele>
        <time>2012-08-05T14:31:44Z</time>
      </trkpt>
      <trkpt lat="61.6497650184" lon="8.66754007526">
        <ele>1353.67</ele>
        <time>2012-08-05T14:32:05Z</time>
      </trkpt>
      <trkpt lat="61.6497555468" lon="8.66746329702">
        <ele>1354.63</ele>
        <time>2012-08-05T14:32:09Z</time>
      </trkpt>
      <trkpt lat="61.6497518588" lon="8.66745114326">
        <ele>1354.15</ele>
        <time>2012-08-05T14:32:10Z</time>
      </trkpt>
      <trkpt lat="61.6497227736" lon="8.6673526559">
        <ele>1355.6</ele>
        <time>2012-08-05T14:32:16Z</time>
      </trkpt>
      <trkpt lat="61.6496608313" lon="8.66705803201">
        <ele>1356.56</ele>
        <time>2012-08-05T14:32:32Z</time>
      </trkpt>
      <trkpt lat="61.6496000625" lon="8.66687270813">
        <ele>1355.6</ele>
        <time>2012-08-05T14:32:44Z</time>
      </trkpt>
      <trkpt lat="61.6495120525" lon="8.66661379114">
        <ele>1355.6</ele>
        <time>2012-08-05T14:32:57Z</time>
      </trkpt>
      <trkpt lat="61.649469221" lon="8.66649183445">
        <ele>1357.04</ele>
        <time>2012-08-05T14:33:04Z</time>
      </trkpt>
      <trkpt lat="61.6493921075" lon="8.66621590219">
        <ele>1357.04</ele>
        <time>2012-08-05T14:33:17Z</time>
      </trkpt>
      <trkpt lat="61.6493546404" lon="8.66604792885">
        <ele>1357.52</ele>
        <time>2012-08-05T14:33:25Z</time>
      </trkpt>
      <trkpt lat="61.6493350267" lon="8.66594533436">
        <ele>1357.52</ele>
        <time>2012-08-05T14:33:30Z</time>
      </trkpt>
      <trkpt lat="61.6492618527" lon="8.66571391001">
        <ele>1358.48</ele>
        <time>2012-08-05T14:33:43Z</time>
      </trkpt>
      <trkpt lat="61.6492526326" lon="8.6656962242">
        <ele>1357.52</ele>
        <time>2012-08-05T14:33:45Z</time>
      </trkpt>
      <trkpt lat="61.6492227092" lon="8.6656367965">
        <ele>1359.44</ele>
        <time>2012-08-05T14:33:49Z</time>
      </trkpt>
      <trkpt lat="61.6492020898" lon="8.66560360417">
        <ele>1358</ele>
        <time>2012-08-05T14:33:52Z</time>
      </trkpt>
      <trkpt lat="61.6491460986" lon="8.66553755477">
        <ele>1357.52</ele>
        <time>2012-08-05T14:33:57Z</time>
      </trkpt>
      <trkpt lat="61.6489817295" lon="8.66535742767">
        <ele>1358.48</ele>
        <time>2012-08-05T14:34:13Z</time>
      </trkpt>
      <trkpt lat="61.6488410812" lon="8.66522004828">
        <ele>1358.48</ele>
        <time>2012-08-05T14:34:26Z</time>
      </trkpt>
      <trkpt lat="61.648680903" lon="8.66511217318">
        <ele>1358.48</ele>
        <time>2012-08-05T14:34:40Z</time>
      </trkpt>
      <trkpt lat="61.6485237423" lon="8.6649669148">
        <ele>1358</ele>
        <time>2012-08-05T14:34:54Z</time>
      </trkpt>
      <trkpt lat="61.6483573616" lon="8.66485669278">
        <ele>1358</ele>
        <time>2012-08-05T14:35:08Z</time>
      </trkpt>
      <trkpt lat="61.6482037213" lon="8.66471176967">
        <ele>1357.52</ele>
        <time>2012-08-05T14:35:23Z</time>
      </trkpt>
      <trkpt lat="61.6480973549" lon="8.66459157318">
        <ele>1357.52</ele>
        <time>2012-08-05T14:35:34Z</time>
      </trkpt>
      <trkpt lat="61.6480435431" lon="8.66453784518">
        <ele>1358</ele>
        <time>2012-08-05T14:35:40Z</time>
      </trkpt>
      <trkpt lat="61.647891663" lon="8.6643666029">
        <ele>1358</ele>
        <time>2012-08-05T14:35:54Z</time>
      </trkpt>
      <trkpt lat="61.6478672717" lon="8.66434145719">
        <ele>1358.96</ele>
        <time>2012-08-05T14:35:56Z</time>
      </trkpt>
      <trkpt lat="61.6478568781" lon="8.66431052797">
        <ele>1358</ele>
        <time>2012-08-05T14:35:58Z</time>
      </trkpt>
      <trkpt lat="61.647769874" lon="8.66417390294">
        <ele>1358.48</ele>
        <time>2012-08-05T14:36:07Z</time>
      </trkpt>
      <trkpt lat="61.6477361787" lon="8.66410994902">
        <ele>1358.48</ele>
        <time>2012-08-05T14:36:11Z</time>
      </trkpt>
      <trkpt lat="61.6476191673" lon="8.66393292323">
        <ele>1359.92</ele>
        <time>2012-08-05T14:36:24Z</time>
      </trkpt>
      <trkpt lat="61.6475293972" lon="8.66370091215">
        <ele>1359.44</ele>
        <time>2012-08-05T14:36:36Z</time>
      </trkpt>
      <trkpt lat="61.6474175826" lon="8.66347242147">
        <ele>1359.44</ele>
        <time>2012-08-05T14:36:50Z</time>
      </trkpt>
      <trkpt lat="61.6472924408" lon="8.66330402903">
        <ele>1359.44</ele>
        <time>2012-08-05T14:37:02Z</time>
      </trkpt>
      <trkpt lat="61.6472615115" lon="8.66326538846">
        <ele>1358.96</ele>
        <time>2012-08-05T14:37:06Z</time>
      </trkpt>
      <trkpt lat="61.6471154988" lon="8.66307495162">
        <ele>1358.48</ele>
        <time>2012-08-05T14:37:20Z</time>
      </trkpt>
      <trkpt lat="61.6470600106" lon="8.66298367269">
        <ele>1359.92</ele>
        <time>2012-08-05T14:37:27Z</time>
      </trkpt>
      <trkpt lat="61.6469101422" lon="8.66278761998">
        <ele>1358.48</ele>
        <time>2012-08-05T14:37:42Z</time>
      </trkpt>
      <trkpt lat="61.6467824019" lon="8.6626313813">
        <ele>1358.48</ele>
        <time>2012-08-05T14:37:54Z</time>
      </trkpt>
      <trkpt lat="61.6467010975" lon="8.66251093335">
        <ele>1358</ele>
        <time>2012-08-05T14:38:02Z</time>
      </trkpt>
      <trkpt lat="61.6465752851" lon="8.66242895834">
        <ele>1358.96</ele>
        <time>2012-08-05T14:38:15Z</time>
      </trkpt>
      <trkpt lat="61.6464933939" lon="8.66232166998">
        <ele>1359.44</ele>
        <time>2012-08-05T14:38:24Z</time>
      </trkpt>
      <trkpt lat="61.6463603731" lon="8.66215771995">
        <ele>1359.92</ele>
        <time>2012-08-05T14:38:38Z</time>
      </trkpt>
      <trkpt lat="61.646172367" lon="8.66198245436">
        <ele>1359.92</ele>
        <time>2012-08-05T14:38:53Z</time>
      </trkpt>
      <trkpt lat="61.6460274439" lon="8.66184515879">
        <ele>1361.36</ele>
        <time>2012-08-05T14:39:06Z</time>
      </trkpt>
      <trkpt lat="61.6459145397" lon="8.66168422624">
        <ele>1359.92</ele>
        <time>2012-08-05T14:39:20Z</time>
      </trkpt>
      <trkpt lat="61.6457833629" lon="8.66155162454">
        <ele>1359.92</ele>
        <time>2012-08-05T14:39:32Z</time>
      </trkpt>
      <trkpt lat="61.6456519347" lon="8.6614211183">
        <ele>1359.92</ele>
        <time>2012-08-05T14:39:44Z</time>
      </trkpt>
      <trkpt lat="61.6456034034" lon="8.66137887351">
        <ele>1361.36</ele>
        <time>2012-08-05T14:39:48Z</time>
      </trkpt>
      <trkpt lat="61.64546418" lon="8.66119815968">
        <ele>1360.88</ele>
        <time>2012-08-05T14:40:02Z</time>
      </trkpt>
      <trkpt lat="61.6453420557" lon="8.66111408919">
        <ele>1360.88</ele>
        <time>2012-08-05T14:40:13Z</time>
      </trkpt>
      <trkpt lat="61.6451729927" lon="8.66092591546">
        <ele>1360.4</ele>
        <time>2012-08-05T14:40:28Z</time>
      </trkpt>
      <trkpt lat="61.6450304165" lon="8.66076163016">
        <ele>1360.88</ele>
        <time>2012-08-05T14:40:41Z</time>
      </trkpt>
      <trkpt lat="61.6449073702" lon="8.66060371511">
        <ele>1360.88</ele>
        <time>2012-08-05T14:40:55Z</time>
      </trkpt>
      <trkpt lat="61.6448723339" lon="8.66054705344">
        <ele>1362.33</ele>
        <time>2012-08-05T14:40:59Z</time>
      </trkpt>
      <trkpt lat="61.6448152531" lon="8.66047765128">
        <ele>1360.88</ele>
        <time>2012-08-05T14:41:06Z</time>
      </trkpt>
      <trkpt lat="61.6448002495" lon="8.66044772789">
        <ele>1362.33</ele>
        <time>2012-08-05T14:41:08Z</time>
      </trkpt>
      <trkpt lat="61.6447294224" lon="8.66032987833">
        <ele>1361.84</ele>
        <time>2012-08-05T14:41:16Z</time>
      </trkpt>
      <trkpt lat="61.644584164" lon="8.66016224027">
        <ele>1361.36</ele>
        <time>2012-08-05T14:41:30Z</time>
      </trkpt>
      <trkpt lat="61.6444425099" lon="8.66000583395">
        <ele>1360.88</ele>
        <time>2012-08-05T14:41:44Z</time>
      </trkpt>
      <trkpt lat="61.6443174519" lon="8.65988530219">
        <ele>1361.84</ele>
        <time>2012-08-05T14:41:57Z</time>
      </trkpt>
      <trkpt lat="61.6441783123" lon="8.65980341099">
        <ele>1362.33</ele>
        <time>2012-08-05T14:42:09Z</time>
      </trkpt>
      <trkpt lat="61.6441539209" lon="8.65979586728">
        <ele>1361.36</ele>
        <time>2012-08-05T14:42:12Z</time>
      </trkpt>
      <trkpt lat="61.6440942418" lon="8.65975202993">
        <ele>1362.33</ele>
        <time>2012-08-05T14:42:19Z</time>
      </trkpt>
      <trkpt lat="61.6439361591" lon="8.65971129388">
        <ele>1362.33</ele>
        <time>2012-08-05T14:42:33Z</time>
      </trkpt>
      <trkpt lat="61.6437753942" lon="8.65964113735">
        <ele>1362.33</ele>
        <time>2012-08-05T14:42:47Z</time>
      </trkpt>
      <trkpt lat="61.6436147969" lon="8.65958816372">
        <ele>1362.81</ele>
        <time>2012-08-05T14:43:00Z</time>
      </trkpt>
      <trkpt lat="61.6434606537" lon="8.65952705964">
        <ele>1362.81</ele>
        <time>2012-08-05T14:43:14Z</time>
      </trkpt>
      <trkpt lat="61.643425785" lon="8.65949185565">
        <ele>1363.29</ele>
        <time>2012-08-05T14:43:19Z</time>
      </trkpt>
      <trkpt lat="61.6433744039" lon="8.65945874713">
        <ele>1362.33</ele>
        <time>2012-08-05T14:43:23Z</time>
      </trkpt>
      <trkpt lat="61.6433263756" lon="8.65942547098">
        <ele>1361.84</ele>
        <time>2012-08-05T14:43:27Z</time>
      </trkpt>
      <trkpt lat="61.6431879904" lon="8.65933645517">
        <ele>1362.81</ele>
        <time>2012-08-05T14:43:41Z</time>
      </trkpt>
      <trkpt lat="61.6430984717" lon="8.65918650292">
        <ele>1362.33</ele>
        <time>2012-08-05T14:43:52Z</time>
      </trkpt>
      <trkpt lat="61.6429782752" lon="8.65903914906">
        <ele>1362.81</ele>
        <time>2012-08-05T14:44:04Z</time>
      </trkpt>
      <trkpt lat="61.6429371201" lon="8.65901735611">
        <ele>1362.81</ele>
        <time>2012-08-05T14:44:19Z</time>
      </trkpt>
      <trkpt lat="61.6429513693" lon="8.65900117904">
        <ele>1361.84</ele>
        <time>2012-08-05T14:44:42Z</time>
      </trkpt>
      <trkpt lat="61.6429513693" lon="8.65898550488">
        <ele>1363.29</ele>
        <time>2012-08-05T14:45:05Z</time>
      </trkpt>
      <trkpt lat="61.6429125611" lon="8.6589212995">
        <ele>1362.81</ele>
        <time>2012-08-05T14:45:10Z</time>
      </trkpt>
      <trkpt lat="61.6428235453" lon="8.65881233476">
        <ele>1361.84</ele>
        <time>2012-08-05T14:45:19Z</time>
      </trkpt>
      <trkpt lat="61.6426793765" lon="8.65872516297">
        <ele>1361.84</ele>
        <time>2012-08-05T14:45:32Z</time>
      </trkpt>
      <trkpt lat="61.6425057035" lon="8.65860337391">
        <ele>1361.84</ele>
        <time>2012-08-05T14:45:46Z</time>
      </trkpt>
      <trkpt lat="61.6423552483" lon="8.65852818824">
        <ele>1361.84</ele>
        <time>2012-08-05T14:45:59Z</time>
      </trkpt>
      <trkpt lat="61.6423653904" lon="8.65850044414">
        <ele>1362.33</ele>
        <time>2012-08-05T14:46:14Z</time>
      </trkpt>
      <trkpt lat="61.6422893666" lon="8.65851201117">
        <ele>1362.81</ele>
        <time>2012-08-05T14:46:28Z</time>
      </trkpt>
      <trkpt lat="61.6421991773" lon="8.65846490487">
        <ele>1362.81</ele>
        <time>2012-08-05T14:46:39Z</time>
      </trkpt>
      <trkpt lat="61.6421701759" lon="8.65847957321">
        <ele>1361.84</ele>
        <time>2012-08-05T14:46:43Z</time>
      </trkpt>
      <trkpt lat="61.6420481354" lon="8.6584782321">
        <ele>1361.36</ele>
        <time>2012-08-05T14:46:56Z</time>
      </trkpt>
      <trkpt lat="61.6419758834" lon="8.65848954767">
        <ele>1362.33</ele>
        <time>2012-08-05T14:47:09Z</time>
      </trkpt>
      <trkpt lat="61.6419716924" lon="8.6584821716">
        <ele>1361.84</ele>
        <time>2012-08-05T14:47:22Z</time>
      </trkpt>
      <trkpt lat="61.6419499833" lon="8.65849122405">
        <ele>1362.33</ele>
        <time>2012-08-05T14:47:26Z</time>
      </trkpt>
      <trkpt lat="61.6418929864" lon="8.65846934728">
        <ele>1363.77</ele>
        <time>2012-08-05T14:47:33Z</time>
      </trkpt>
      <trkpt lat="61.641856106" lon="8.65845543332">
        <ele>1364.25</ele>
        <time>2012-08-05T14:47:38Z</time>
      </trkpt>
      <trkpt lat="61.6417950019" lon="8.65844026208">
        <ele>1362.81</ele>
        <time>2012-08-05T14:47:44Z</time>
      </trkpt>
      <trkpt lat="61.6416514199" lon="8.65838628262">
        <ele>1361.84</ele>
        <time>2012-08-05T14:47:58Z</time>
      </trkpt>
      <trkpt lat="61.6415572073" lon="8.65838334896">
        <ele>1361.84</ele>
        <time>2012-08-05T14:48:06Z</time>
      </trkpt>
      <trkpt lat="61.6415068321" lon="8.65837278776">
        <ele>1360.4</ele>
        <time>2012-08-05T14:48:10Z</time>
      </trkpt>
      <trkpt lat="61.6413551196" lon="8.65835174918">
        <ele>1362.81</ele>
        <time>2012-08-05T14:48:24Z</time>
      </trkpt>
      <trkpt lat="61.6413370986" lon="8.65834579803">
        <ele>1361.36</ele>
        <time>2012-08-05T14:48:26Z</time>
      </trkpt>
      <trkpt lat="61.6411776748" lon="8.65829684772">
        <ele>1361.36</ele>
        <time>2012-08-05T14:48:40Z</time>
      </trkpt>
      <trkpt lat="61.6410749126" lon="8.65828678943">
        <ele>1362.81</ele>
        <time>2012-08-05T14:48:52Z</time>
      </trkpt>
      <trkpt lat="61.6409703903" lon="8.65827010944">
        <ele>1363.77</ele>
        <time>2012-08-05T14:49:01Z</time>
      </trkpt>
      <trkpt lat="61.6408094577" lon="8.65821906365">
        <ele>1364.25</ele>
        <time>2012-08-05T14:49:15Z</time>
      </trkpt>
      <trkpt lat="61.6407831386" lon="8.65818981081">
        <ele>1362.81</ele>
        <time>2012-08-05T14:49:18Z</time>
      </trkpt>
      <trkpt lat="61.6406903509" lon="8.65809643641">
        <ele>1362.33</ele>
        <time>2012-08-05T14:49:30Z</time>
      </trkpt>
      <trkpt lat="61.6406586673" lon="8.65806181915">
        <ele>1364.25</ele>
        <time>2012-08-05T14:49:33Z</time>
      </trkpt>
      <trkpt lat="61.6406253073" lon="8.65799585357">
        <ele>1363.29</ele>
        <time>2012-08-05T14:49:37Z</time>
      </trkpt>
      <trkpt lat="61.6404872574" lon="8.65787959658">
        <ele>1362.81</ele>
        <time>2012-08-05T14:49:51Z</time>
      </trkpt>
      <trkpt lat="61.6403362155" lon="8.6577929277">
        <ele>1362.81</ele>
        <time>2012-08-05T14:50:04Z</time>
      </trkpt>
      <trkpt lat="61.6401812341" lon="8.65771338344">
        <ele>1363.29</ele>
        <time>2012-08-05T14:50:18Z</time>
      </trkpt>
      <trkpt lat="61.6400350537" lon="8.6576594878">
        <ele>1363.29</ele>
        <time>2012-08-05T14:50:30Z</time>
      </trkpt>
      <trkpt lat="61.6398674995" lon="8.65760701708">
        <ele>1363.29</ele>
        <time>2012-08-05T14:50:43Z</time>
      </trkpt>
      <trkpt lat="61.6397180501" lon="8.65757131018">
        <ele>1363.29</ele>
        <time>2012-08-05T14:50:57Z</time>
      </trkpt>
      <trkpt lat="61.6395445447" lon="8.65756552666">
        <ele>1364.25</ele>
        <time>2012-08-05T14:51:11Z</time>
      </trkpt>
      <trkpt lat="61.639530044" lon="8.65756234154">
        <ele>1364.73</ele>
        <time>2012-08-05T14:51:12Z</time>
      </trkpt>
      <trkpt lat="61.63934757" lon="8.65755094215">
        <ele>1363.77</ele>
        <time>2012-08-05T14:51:25Z</time>
      </trkpt>
      <trkpt lat="61.6391936783" lon="8.65757239982">
        <ele>1364.25</ele>
        <time>2012-08-05T14:51:40Z</time>
      </trkpt>
      <trkpt lat="61.6390808579" lon="8.65754071623">
        <ele>1364.25</ele>
        <time>2012-08-05T14:51:50Z</time>
      </trkpt>
      <trkpt lat="61.6389115434" lon="8.65754976869">
        <ele>1364.73</ele>
        <time>2012-08-05T14:52:04Z</time>
      </trkpt>
      <trkpt lat="61.6387465037" lon="8.6575344298">
        <ele>1364.73</ele>
        <time>2012-08-05T14:52:19Z</time>
      </trkpt>
      <trkpt lat="61.6385756806" lon="8.65751054138">
        <ele>1364.25</ele>
        <time>2012-08-05T14:52:33Z</time>
      </trkpt>
      <trkpt lat="61.6385441646" lon="8.65749947727">
        <ele>1364.73</ele>
        <time>2012-08-05T14:52:37Z</time>
      </trkpt>
      <trkpt lat="61.6383742634" lon="8.65745563991">
        <ele>1364.73</ele>
        <time>2012-08-05T14:52:52Z</time>
      </trkpt>
      <trkpt lat="61.6382288374" lon="8.6573842261">
        <ele>1365.21</ele>
        <time>2012-08-05T14:53:04Z</time>
      </trkpt>
      <trkpt lat="61.6380579304" lon="8.6572719086">
        <ele>1364.73</ele>
        <time>2012-08-05T14:53:18Z</time>
      </trkpt>
      <trkpt lat="61.6379240714" lon="8.65717367269">
        <ele>1365.21</ele>
        <time>2012-08-05T14:53:31Z</time>
      </trkpt>
      <trkpt lat="61.6379193775" lon="8.65716562606">
        <ele>1364.73</ele>
        <time>2012-08-05T14:53:32Z</time>
      </trkpt>
      <trkpt lat="61.6379006859" lon="8.65714182146">
        <ele>1366.65</ele>
        <time>2012-08-05T14:53:34Z</time>
      </trkpt>
      <trkpt lat="61.6378276795" lon="8.65704249591">
        <ele>1366.17</ele>
        <time>2012-08-05T14:53:42Z</time>
      </trkpt>
      <trkpt lat="61.637767246" lon="8.65689991973">
        <ele>1366.65</ele>
        <time>2012-08-05T14:53:56Z</time>
      </trkpt>
      <trkpt lat="61.6377638932" lon="8.65689774044">
        <ele>1364.73</ele>
        <time>2012-08-05T14:53:58Z</time>
      </trkpt>
      <trkpt lat="61.6377577744" lon="8.65687787533">
        <ele>1366.17</ele>
        <time>2012-08-05T14:54:00Z</time>
      </trkpt>
      <trkpt lat="61.6377446149" lon="8.65687309764">
        <ele>1366.17</ele>
        <time>2012-08-05T14:54:02Z</time>
      </trkpt>
      <trkpt lat="61.6376635619" lon="8.65674477071">
        <ele>1366.17</ele>
        <time>2012-08-05T14:54:14Z</time>
      </trkpt>
      <trkpt lat="61.6375607159" lon="8.65659599192">
        <ele>1367.61</ele>
        <time>2012-08-05T14:54:26Z</time>
      </trkpt>
      <trkpt lat="61.6375292838" lon="8.65654796362">
        <ele>1368.09</ele>
        <time>2012-08-05T14:54:30Z</time>
      </trkpt>
      <trkpt lat="61.6374799144" lon="8.65647361614">
        <ele>1368.09</ele>
        <time>2012-08-05T14:54:36Z</time>
      </trkpt>
      <trkpt lat="61.6374377534" lon="8.65640169941">
        <ele>1367.13</ele>
        <time>2012-08-05T14:54:50Z</time>
      </trkpt>
      <trkpt lat="61.6374143679" lon="8.6563263461">
        <ele>1366.65</ele>
        <time>2012-08-05T14:55:04Z</time>
      </trkpt>
      <trkpt lat="61.6374060698" lon="8.65629072301">
        <ele>1366.65</ele>
        <time>2012-08-05T14:55:06Z</time>
      </trkpt>
      <trkpt lat="61.6373905633" lon="8.65617698058">
        <ele>1367.61</ele>
        <time>2012-08-05T14:55:20Z</time>
      </trkpt>
      <trkpt lat="61.6373968497" lon="8.65619516931">
        <ele>1359.92</ele>
        <time>2012-08-05T14:55:29Z</time>
      </trkpt>
      <trkpt lat="61.6373966821" lon="8.65619709715">
        <ele>1366.17</ele>
        <time>2012-08-05T14:55:30Z</time>
      </trkpt>
      <trkpt lat="61.6373979393" lon="8.65619667806">
        <ele>1367.61</ele>
        <time>2012-08-05T14:55:32Z</time>
      </trkpt>
      <trkpt lat="61.6374048963" lon="8.65621251985">
        <ele>1367.61</ele>
        <time>2012-08-05T14:55:36Z</time>
      </trkpt>
      <trkpt lat="61.6374090873" lon="8.65623699501">
        <ele>1362.33</ele>
        <time>2012-08-05T14:55:45Z</time>
      </trkpt>
      <trkpt lat="61.6374091711" lon="8.6562259309">
        <ele>1365.69</ele>
        <time>2012-08-05T14:55:46Z</time>
      </trkpt>
      <trkpt lat="61.6374026332" lon="8.65620321594">
        <ele>1368.09</ele>
        <time>2012-08-05T14:55:49Z</time>
      </trkpt>
      <trkpt lat="61.637398107" lon="8.65618033335">
        <ele>1372.42</ele>
        <time>2012-08-05T14:55:57Z</time>
      </trkpt>
      <trkpt lat="61.6374002863" lon="8.65618200973">
        <ele>1368.09</ele>
        <time>2012-08-05T14:55:58Z</time>
      </trkpt>
      <trkpt lat="61.6374064051" lon="8.65621444769">
        <ele>1364.73</ele>
        <time>2012-08-05T14:56:09Z</time>
      </trkpt>
      <trkpt lat="61.6374143679" lon="8.65621034056">
        <ele>1368.09</ele>
        <time>2012-08-05T14:56:10Z</time>
      </trkpt>
      <trkpt lat="61.6374158766" lon="8.65620774217">
        <ele>1368.09</ele>
        <time>2012-08-05T14:56:11Z</time>
      </trkpt>
      <trkpt lat="61.6374131944" lon="8.65620296448">
        <ele>1363.29</ele>
        <time>2012-08-05T14:56:12Z</time>
      </trkpt>
      <trkpt lat="61.6374126077" lon="8.65620153956">
        <ele>1368.57</ele>
        <time>2012-08-05T14:56:13Z</time>
      </trkpt>
      <trkpt lat="61.6374105122" lon="8.6562048085">
        <ele>1373.38</ele>
        <time>2012-08-05T14:56:14Z</time>
      </trkpt>
      <trkpt lat="61.6374104284" lon="8.65619692951">
        <ele>1366.65</ele>
        <time>2012-08-05T14:56:15Z</time>
      </trkpt>
      <trkpt lat="61.6373965982" lon="8.65616977215">
        <ele>1367.13</ele>
        <time>2012-08-05T14:56:32Z</time>
      </trkpt>
      <trkpt lat="61.6373903118" lon="8.65622341633">
        <ele>1367.61</ele>
        <time>2012-08-05T14:56:50Z</time>
      </trkpt>
      <trkpt lat="61.6373755597" lon="8.65617756732">
        <ele>1368.09</ele>
        <time>2012-08-05T14:57:16Z</time>
      </trkpt>
      <trkpt lat="61.6373834386" lon="8.65618653595">
        <ele>1367.61</ele>
        <time>2012-08-05T14:57:39Z</time>
      </trkpt>
      <trkpt lat="61.6373829357" lon="8.65619022399">
        <ele>1364.73</ele>
        <time>2012-08-05T14:57:42Z</time>
      </trkpt>
      <trkpt lat="61.6373842768" lon="8.65618435666">
        <ele>1370.02</ele>
        <time>2012-08-05T14:57:43Z</time>
      </trkpt>
      <trkpt lat="61.6373830196" lon="8.65619936027">
        <ele>1367.61</ele>
        <time>2012-08-05T14:57:46Z</time>
      </trkpt>
      <trkpt lat="61.6373692732" lon="8.65620732307">
        <ele>1367.13</ele>
        <time>2012-08-05T14:58:11Z</time>
      </trkpt>
      <trkpt lat="61.6373588797" lon="8.65619734861">
        <ele>1367.61</ele>
        <time>2012-08-05T14:58:40Z</time>
      </trkpt>
      <trkpt lat="61.6373748053" lon="8.65617932752">
        <ele>1366.65</ele>
        <time>2012-08-05T14:59:01Z</time>
      </trkpt>
      <trkpt lat="61.6373833548" lon="8.65613842383">
        <ele>1367.61</ele>
        <time>2012-08-05T14:59:08Z</time>
      </trkpt>
      <trkpt lat="61.63737447" lon="8.65614462644">
        <ele>1367.61</ele>
        <time>2012-08-05T14:59:36Z</time>
      </trkpt>
      <trkpt lat="61.6373764817" lon="8.65617010742">
        <ele>1367.13</ele>
        <time>2012-08-05T14:59:50Z</time>
      </trkpt>
      <trkpt lat="61.6373643279" lon="8.65616306663">
        <ele>1366.65</ele>
        <time>2012-08-05T15:00:22Z</time>
      </trkpt>
      <trkpt lat="61.6373806726" lon="8.65617563948">
        <ele>1367.13</ele>
        <time>2012-08-05T15:00:36Z</time>
      </trkpt>
      <trkpt lat="61.6373787448" lon="8.65617756732">
        <ele>1367.61</ele>
        <time>2012-08-05T15:01:04Z</time>
      </trkpt>
      <trkpt lat="61.6373637412" lon="8.65617496893">
        <ele>1367.13</ele>
        <time>2012-08-05T15:01:22Z</time>
      </trkpt>
      <trkpt lat="61.6373556107" lon="8.65621193312">
        <ele>1367.13</ele>
        <time>2012-08-05T15:01:27Z</time>
      </trkpt>
      <trkpt lat="61.6373379249" lon="8.65621905774">
        <ele>1366.17</ele>
        <time>2012-08-05T15:01:40Z</time>
      </trkpt>
      <trkpt lat="61.6373396851" lon="8.65621444769">
        <ele>1366.65</ele>
        <time>2012-08-05T15:02:02Z</time>
      </trkpt>
      <trkpt lat="61.6373100132" lon="8.65620908327">
        <ele>1366.17</ele>
        <time>2012-08-05T15:02:24Z</time>
      </trkpt>
      <trkpt lat="61.6371907387" lon="8.65603448823">
        <ele>1365.21</ele>
        <time>2012-08-05T15:02:37Z</time>
      </trkpt>
      <trkpt lat="61.6370214242" lon="8.65584379993">
        <ele>1365.69</ele>
        <time>2012-08-05T15:02:54Z</time>
      </trkpt>
      <trkpt lat="61.636846913" lon="8.65569803864">
        <ele>1365.69</ele>
        <time>2012-08-05T15:03:10Z</time>
      </trkpt>
      <trkpt lat="61.636670474" lon="8.65563433617">
        <ele>1365.69</ele>
        <time>2012-08-05T15:03:25Z</time>
      </trkpt>
      <trkpt lat="61.6365096252" lon="8.65556459874">
        <ele>1365.69</ele>
        <time>2012-08-05T15:03:40Z</time>
      </trkpt>
      <trkpt lat="61.6363051906" lon="8.65545714274">
        <ele>1365.69</ele>
        <time>2012-08-05T15:03:58Z</time>
      </trkpt>
      <trkpt lat="61.6361223813" lon="8.65541364066">
        <ele>1366.17</ele>
        <time>2012-08-05T15:04:13Z</time>
      </trkpt>
      <trkpt lat="61.6359841637" lon="8.65531624295">
        <ele>1366.17</ele>
        <time>2012-08-05T15:04:27Z</time>
      </trkpt>
      <trkpt lat="61.6357864346" lon="8.65522613749">
        <ele>1368.09</ele>
        <time>2012-08-05T15:04:44Z</time>
      </trkpt>
      <trkpt lat="61.6356164496" lon="8.65515011363">
        <ele>1368.09</ele>
        <time>2012-08-05T15:04:58Z</time>
      </trkpt>
      <trkpt lat="61.6355923098" lon="8.65513988771">
        <ele>1368.57</ele>
        <time>2012-08-05T15:05:01Z</time>
      </trkpt>
      <trkpt lat="61.6355048027" lon="8.65508691408">
        <ele>1368.57</ele>
        <time>2012-08-05T15:05:08Z</time>
      </trkpt>
      <trkpt lat="61.6353576165" lon="8.6549725011">
        <ele>1368.57</ele>
        <time>2012-08-05T15:05:21Z</time>
      </trkpt>
      <trkpt lat="61.6353344824" lon="8.65496076643">
        <ele>1368.57</ele>
        <time>2012-08-05T15:05:24Z</time>
      </trkpt>
      <trkpt lat="61.6352865379" lon="8.65491617471">
        <ele>1369.05</ele>
        <time>2012-08-05T15:05:28Z</time>
      </trkpt>
      <trkpt lat="61.6351195704" lon="8.65469573066">
        <ele>1369.54</ele>
        <time>2012-08-05T15:05:46Z</time>
      </trkpt>
      <trkpt lat="61.6349668521" lon="8.65452582948">
        <ele>1369.05</ele>
        <time>2012-08-05T15:06:00Z</time>
      </trkpt>
      <trkpt lat="61.6348357592" lon="8.65437026136">
        <ele>1370.02</ele>
        <time>2012-08-05T15:06:14Z</time>
      </trkpt>
      <trkpt lat="61.6346971225" lon="8.65423841402">
        <ele>1369.05</ele>
        <time>2012-08-05T15:06:28Z</time>
      </trkpt>
      <trkpt lat="61.6345425602" lon="8.65402936935">
        <ele>1370.5</ele>
        <time>2012-08-05T15:06:44Z</time>
      </trkpt>
      <trkpt lat="61.6343918536" lon="8.6538939178">
        <ele>1370.98</ele>
        <time>2012-08-05T15:07:00Z</time>
      </trkpt>
      <trkpt lat="61.6343205236" lon="8.65382233635">
        <ele>1371.46</ele>
        <time>2012-08-05T15:07:07Z</time>
      </trkpt>
      <trkpt lat="61.6342617664" lon="8.65379911847">
        <ele>1370.98</ele>
        <time>2012-08-05T15:07:11Z</time>
      </trkpt>
      <trkpt lat="61.634097565" lon="8.6536375992">
        <ele>1372.42</ele>
        <time>2012-08-05T15:07:27Z</time>
      </trkpt>
      <trkpt lat="61.6339561623" lon="8.65346753038">
        <ele>1372.9</ele>
        <time>2012-08-05T15:07:42Z</time>
      </trkpt>
      <trkpt lat="61.6338181123" lon="8.65326820873">
        <ele>1373.38</ele>
        <time>2012-08-05T15:07:56Z</time>
      </trkpt>
      <trkpt lat="61.6336513963" lon="8.6531007383">
        <ele>1374.82</ele>
        <time>2012-08-05T15:08:15Z</time>
      </trkpt>
      <trkpt lat="61.6334985103" lon="8.65285933949">
        <ele>1376.75</ele>
        <time>2012-08-05T15:08:32Z</time>
      </trkpt>
      <trkpt lat="61.6333011165" lon="8.65265306085">
        <ele>1378.19</ele>
        <time>2012-08-05T15:08:49Z</time>
      </trkpt>
      <trkpt lat="61.6331380885" lon="8.65243714303">
        <ele>1379.15</ele>
        <time>2012-08-05T15:09:06Z</time>
      </trkpt>
      <trkpt lat="61.6329588834" lon="8.65227067843">
        <ele>1381.07</ele>
        <time>2012-08-05T15:09:23Z</time>
      </trkpt>
      <trkpt lat="61.632959554" lon="8.65222893655">
        <ele>1380.11</ele>
        <time>2012-08-05T15:09:40Z</time>
      </trkpt>
      <trkpt lat="61.6329425387" lon="8.65224553272">
        <ele>1380.11</ele>
        <time>2012-08-05T15:10:05Z</time>
      </trkpt>
      <trkpt lat="61.63292896" lon="8.65219490603">
        <ele>1380.11</ele>
        <time>2012-08-05T15:10:20Z</time>
      </trkpt>
      <trkpt lat="61.6329401918" lon="8.65217126906">
        <ele>1379.15</ele>
        <time>2012-08-05T15:10:34Z</time>
      </trkpt>
      <trkpt lat="61.6329591349" lon="8.65220219828">
        <ele>1380.59</ele>
        <time>2012-08-05T15:11:02Z</time>
      </trkpt>
      <trkpt lat="61.6329587158" lon="8.65220471285">
        <ele>1380.11</ele>
        <time>2012-08-05T15:11:26Z</time>
      </trkpt>
      <trkpt lat="61.6329462267" lon="8.65225207061">
        <ele>1380.59</ele>
        <time>2012-08-05T15:11:56Z</time>
      </trkpt>
      <trkpt lat="61.6329603083" lon="8.65223790519">
        <ele>1381.55</ele>
        <time>2012-08-05T15:12:32Z</time>
      </trkpt>
      <trkpt lat="61.6329521779" lon="8.65221678279">
        <ele>1382.03</ele>
        <time>2012-08-05T15:12:48Z</time>
      </trkpt>
      <trkpt lat="61.6329374257" lon="8.65218015388">
        <ele>1380.59</ele>
        <time>2012-08-05T15:13:01Z</time>
      </trkpt>
      <trkpt lat="61.632931307" lon="8.65218149498">
        <ele>1381.07</ele>
        <time>2012-08-05T15:13:02Z</time>
      </trkpt>
      <trkpt lat="61.6327819414" lon="8.65206154995">
        <ele>1381.07</ele>
        <time>2012-08-05T15:13:17Z</time>
      </trkpt>
      <trkpt lat="61.6326542012" lon="8.6519618053">
        <ele>1382.03</ele>
        <time>2012-08-05T15:13:31Z</time>
      </trkpt>
      <trkpt lat="61.6325286403" lon="8.65181763656">
        <ele>1382.99</ele>
        <time>2012-08-05T15:13:45Z</time>
      </trkpt>
      <trkpt lat="61.6324484255" lon="8.65177472122">
        <ele>1383.47</ele>
        <time>2012-08-05T15:13:53Z</time>
      </trkpt>
      <trkpt lat="61.6324182507" lon="8.65180263296">
        <ele>1383.47</ele>
        <time>2012-08-05T15:13:56Z</time>
      </trkpt>
      <trkpt lat="61.6323951166" lon="8.65180707537">
        <ele>1383.47</ele>
        <time>2012-08-05T15:14:13Z</time>
      </trkpt>
      <trkpt lat="61.6323954519" lon="8.65179408342">
        <ele>1380.59</ele>
        <time>2012-08-05T15:14:14Z</time>
      </trkpt>
      <trkpt lat="61.6323914286" lon="8.65180288441">
        <ele>1384.44</ele>
        <time>2012-08-05T15:14:15Z</time>
      </trkpt>
      <trkpt lat="61.6324024089" lon="8.65176726133">
        <ele>1382.99</ele>
        <time>2012-08-05T15:14:26Z</time>
      </trkpt>
      <trkpt lat="61.632397715" lon="8.65174245089">
        <ele>1383.96</ele>
        <time>2012-08-05T15:14:37Z</time>
      </trkpt>
      <trkpt lat="61.6323723178" lon="8.65164714865">
        <ele>1383.47</ele>
        <time>2012-08-05T15:14:52Z</time>
      </trkpt>
      <trkpt lat="61.6323526204" lon="8.65165100433">
        <ele>1382.51</ele>
        <time>2012-08-05T15:15:04Z</time>
      </trkpt>
      <trkpt lat="61.6323999781" lon="8.65164329298">
        <ele>1383.47</ele>
        <time>2012-08-05T15:15:21Z</time>
      </trkpt>
      <trkpt lat="61.6324224416" lon="8.6516781617">
        <ele>1382.99</ele>
        <time>2012-08-05T15:15:53Z</time>
      </trkpt>
      <trkpt lat="61.6324133053" lon="8.65167229436">
        <ele>1383.47</ele>
        <time>2012-08-05T15:16:29Z</time>
      </trkpt>
      <trkpt lat="61.6324117966" lon="8.65166860633">
        <ele>1382.99</ele>
        <time>2012-08-05T15:16:54Z</time>
      </trkpt>
      <trkpt lat="61.6324173287" lon="8.65168595687">
        <ele>1382.51</ele>
        <time>2012-08-05T15:17:10Z</time>
      </trkpt>
      <trkpt lat="61.6324291471" lon="8.65177631378">
        <ele>1382.99</ele>
        <time>2012-08-05T15:17:27Z</time>
      </trkpt>
      <trkpt lat="61.632428728" lon="8.6517715361">
        <ele>1382.03</ele>
        <time>2012-08-05T15:17:33Z</time>
      </trkpt>
      <trkpt lat="61.6323932726" lon="8.65182191133">
        <ele>1382.99</ele>
        <time>2012-08-05T15:17:54Z</time>
      </trkpt>
      <trkpt lat="61.6323817056" lon="8.65176005289">
        <ele>1382.99</ele>
        <time>2012-08-05T15:18:10Z</time>
      </trkpt>
      <trkpt lat="61.6324045882" lon="8.6517732963">
        <ele>1382.99</ele>
        <time>2012-08-05T15:18:32Z</time>
      </trkpt>
      <trkpt lat="61.6323831305" lon="8.65178436041">
        <ele>1382.99</ele>
        <time>2012-08-05T15:18:46Z</time>
      </trkpt>
      <trkpt lat="61.6323665343" lon="8.65172711201">
        <ele>1382.99</ele>
        <time>2012-08-05T15:19:07Z</time>
      </trkpt>
      <trkpt lat="61.6323848907" lon="8.65170037374">
        <ele>1383.47</ele>
        <time>2012-08-05T15:19:32Z</time>
      </trkpt>
      <trkpt lat="61.6323976312" lon="8.65173423663">
        <ele>1382.51</ele>
        <time>2012-08-05T15:19:55Z</time>
      </trkpt>
      <trkpt lat="61.6324062645" lon="8.65174496546">
        <ele>1383.47</ele>
        <time>2012-08-05T15:20:17Z</time>
      </trkpt>
      <trkpt lat="61.6324049234" lon="8.65177002735">
        <ele>1383.47</ele>
        <time>2012-08-05T15:20:35Z</time>
      </trkpt>
      <trkpt lat="61.6323784366" lon="8.65174152888">
        <ele>1382.99</ele>
        <time>2012-08-05T15:20:49Z</time>
      </trkpt>
      <trkpt lat="61.6323623434" lon="8.65173071623">
        <ele>1383.47</ele>
        <time>2012-08-05T15:21:24Z</time>
      </trkpt>
      <trkpt lat="61.632343065" lon="8.65173683502">
        <ele>1384.44</ele>
        <time>2012-08-05T15:21:29Z</time>
      </trkpt>
      <trkpt lat="61.6322945338" lon="8.65163826384">
        <ele>1383.47</ele>
        <time>2012-08-05T15:21:39Z</time>
      </trkpt>
      <trkpt lat="61.6322855651" lon="8.65162636153">
        <ele>1384.44</ele>
        <time>2012-08-05T15:21:41Z</time>
      </trkpt>
      <trkpt lat="61.6321693081" lon="8.65149795078">
        <ele>1385.4</ele>
        <time>2012-08-05T15:21:54Z</time>
      </trkpt>
      <trkpt lat="61.6321646143" lon="8.65149241872">
        <ele>1384.44</ele>
        <time>2012-08-05T15:21:55Z</time>
      </trkpt>
      <trkpt lat="61.6321450844" lon="8.65146685392">
        <ele>1384.92</ele>
        <time>2012-08-05T15:21:57Z</time>
      </trkpt>
      <trkpt lat="61.6320351139" lon="8.65136551671">
        <ele>1383.96</ele>
        <time>2012-08-05T15:22:09Z</time>
      </trkpt>
      <trkpt lat="61.6318921186" lon="8.65123744123">
        <ele>1383.96</ele>
        <time>2012-08-05T15:22:22Z</time>
      </trkpt>
      <trkpt lat="61.6317697428" lon="8.65114247426">
        <ele>1382.51</ele>
        <time>2012-08-05T15:22:34Z</time>
      </trkpt>
      <trkpt lat="61.6316548269" lon="8.65104683675">
        <ele>1381.55</ele>
        <time>2012-08-05T15:22:47Z</time>
      </trkpt>
      <trkpt lat="61.6316421703" lon="8.65103610791">
        <ele>1381.55</ele>
        <time>2012-08-05T15:22:51Z</time>
      </trkpt>
      <trkpt lat="61.6316027753" lon="8.65098439157">
        <ele>1381.55</ele>
        <time>2012-08-05T15:22:59Z</time>
      </trkpt>
      <trkpt lat="61.6315394081" lon="8.65098489448">
        <ele>1382.03</ele>
        <time>2012-08-05T15:23:15Z</time>
      </trkpt>
      <trkpt lat="61.6315289307" lon="8.65097751841">
        <ele>1382.51</ele>
        <time>2012-08-05T15:23:17Z</time>
      </trkpt>
      <trkpt lat="61.6314042918" lon="8.65083494224">
        <ele>1382.03</ele>
        <time>2012-08-05T15:23:31Z</time>
      </trkpt>
      <trkpt lat="61.6313518211" lon="8.65079596639">
        <ele>1381.55</ele>
        <time>2012-08-05T15:23:37Z</time>
      </trkpt>
      <trkpt lat="61.6312373243" lon="8.65069747902">
        <ele>1382.03</ele>
        <time>2012-08-05T15:23:50Z</time>
      </trkpt>
      <trkpt lat="61.6312097479" lon="8.65065121092">
        <ele>1382.99</ele>
        <time>2012-08-05T15:23:55Z</time>
      </trkpt>
      <trkpt lat="61.6311733704" lon="8.650614582">
        <ele>1382.99</ele>
        <time>2012-08-05T15:24:00Z</time>
      </trkpt>
      <trkpt lat="61.6311128531" lon="8.6505295895">
        <ele>1383.47</ele>
        <time>2012-08-05T15:24:07Z</time>
      </trkpt>
      <trkpt lat="61.6310666688" lon="8.65050151013">
        <ele>1382.51</ele>
        <time>2012-08-05T15:24:12Z</time>
      </trkpt>
      <trkpt lat="61.6309446283" lon="8.65038684569">
        <ele>1383.96</ele>
        <time>2012-08-05T15:24:25Z</time>
      </trkpt>
      <trkpt lat="61.6309397668" lon="8.65038005635">
        <ele>1384.44</ele>
        <time>2012-08-05T15:24:26Z</time>
      </trkpt>
      <trkpt lat="61.6308427043" lon="8.65017143078">
        <ele>1384.92</ele>
        <time>2012-08-05T15:24:39Z</time>
      </trkpt>
      <trkpt lat="61.6307448875" lon="8.64991930313">
        <ele>1386.84</ele>
        <time>2012-08-05T15:24:52Z</time>
      </trkpt>
      <trkpt lat="61.6307164729" lon="8.6498095002">
        <ele>1387.32</ele>
        <time>2012-08-05T15:24:58Z</time>
      </trkpt>
      <trkpt lat="61.6306587216" lon="8.64970472641">
        <ele>1387.32</ele>
        <time>2012-08-05T15:25:12Z</time>
      </trkpt>
      <trkpt lat="61.6306203324" lon="8.649583105">
        <ele>1388.28</ele>
        <time>2012-08-05T15:25:30Z</time>
      </trkpt>
      <trkpt lat="61.6305741481" lon="8.64942217246">
        <ele>1389.24</ele>
        <time>2012-08-05T15:25:43Z</time>
      </trkpt>
      <trkpt lat="61.6305222642" lon="8.64927842282">
        <ele>1391.17</ele>
        <time>2012-08-05T15:25:53Z</time>
      </trkpt>
      <trkpt lat="61.6304165684" lon="8.64910139702">
        <ele>1390.68</ele>
        <time>2012-08-05T15:26:05Z</time>
      </trkpt>
      <trkpt lat="61.6302130558" lon="8.64890249446">
        <ele>1392.13</ele>
        <time>2012-08-05T15:26:22Z</time>
      </trkpt>
      <trkpt lat="61.6300902609" lon="8.64879235625">
        <ele>1393.57</ele>
        <time>2012-08-05T15:26:34Z</time>
      </trkpt>
      <trkpt lat="61.6300247982" lon="8.64872949198">
        <ele>1394.05</ele>
        <time>2012-08-05T15:26:41Z</time>
      </trkpt>
      <trkpt lat="61.6298983153" lon="8.64853947423">
        <ele>1395.01</ele>
        <time>2012-08-05T15:26:56Z</time>
      </trkpt>
      <trkpt lat="61.6298273206" lon="8.64839865826">
        <ele>1395.01</ele>
        <time>2012-08-05T15:27:08Z</time>
      </trkpt>
      <trkpt lat="61.6297807172" lon="8.64825951867">
        <ele>1395.97</ele>
        <time>2012-08-05T15:27:18Z</time>
      </trkpt>
      <trkpt lat="61.6296896059" lon="8.64799900912">
        <ele>1395.97</ele>
        <time>2012-08-05T15:27:33Z</time>
      </trkpt>
      <trkpt lat="61.6295849998" lon="8.64779666997">
        <ele>1395.97</ele>
        <time>2012-08-05T15:27:47Z</time>
      </trkpt>
      <trkpt lat="61.6294724308" lon="8.64753968082">
        <ele>1395.49</ele>
        <time>2012-08-05T15:28:00Z</time>
      </trkpt>
      <trkpt lat="61.6293637175" lon="8.64732082933">
        <ele>1394.05</ele>
        <time>2012-08-05T15:28:15Z</time>
      </trkpt>
      <trkpt lat="61.6292283498" lon="8.64712276496">
        <ele>1395.01</ele>
        <time>2012-08-05T15:28:30Z</time>
      </trkpt>
      <trkpt lat="61.6292096581" lon="8.64709057845">
        <ele>1396.45</ele>
        <time>2012-08-05T15:28:32Z</time>
      </trkpt>
      <trkpt lat="61.6290897131" lon="8.64693509415">
        <ele>1395.97</ele>
        <time>2012-08-05T15:28:45Z</time>
      </trkpt>
      <trkpt lat="61.6289567761" lon="8.64677290432">
        <ele>1396.93</ele>
        <time>2012-08-05T15:28:59Z</time>
      </trkpt>
      <trkpt lat="61.6288335621" lon="8.64663376473">
        <ele>1397.41</ele>
        <time>2012-08-05T15:29:12Z</time>
      </trkpt>
      <trkpt lat="61.6287208255" lon="8.64646897651">
        <ele>1398.86</ele>
        <time>2012-08-05T15:29:25Z</time>
      </trkpt>
      <trkpt lat="61.628708085" lon="8.64645422436">
        <ele>1398.86</ele>
        <time>2012-08-05T15:29:26Z</time>
      </trkpt>
      <trkpt lat="61.6285971086" lon="8.64631500095">
        <ele>1399.34</ele>
        <time>2012-08-05T15:29:39Z</time>
      </trkpt>
      <trkpt lat="61.6284733918" lon="8.64617192186">
        <ele>1398.86</ele>
        <time>2012-08-05T15:29:54Z</time>
      </trkpt>
      <trkpt lat="61.6283436399" lon="8.64597947337">
        <ele>1398.86</ele>
        <time>2012-08-05T15:30:09Z</time>
      </trkpt>
      <trkpt lat="61.6282034107" lon="8.64576783031">
        <ele>1400.3</ele>
        <time>2012-08-05T15:30:25Z</time>
      </trkpt>
      <trkpt lat="61.6281583998" lon="8.64563430659">
        <ele>1400.3</ele>
        <time>2012-08-05T15:30:39Z</time>
      </trkpt>
      <trkpt lat="61.6281195916" lon="8.6455418542">
        <ele>1399.82</ele>
        <time>2012-08-05T15:30:44Z</time>
      </trkpt>
      <trkpt lat="61.6279881634" lon="8.64528922364">
        <ele>1399.82</ele>
        <time>2012-08-05T15:30:59Z</time>
      </trkpt>
      <trkpt lat="61.6278807912" lon="8.64512032829">
        <ele>1400.78</ele>
        <time>2012-08-05T15:31:11Z</time>
      </trkpt>
      <trkpt lat="61.6277476866" lon="8.64497045986">
        <ele>1400.78</ele>
        <time>2012-08-05T15:31:24Z</time>
      </trkpt>
      <trkpt lat="61.6275746841" lon="8.644750854">
        <ele>1399.82</ele>
        <time>2012-08-05T15:31:40Z</time>
      </trkpt>
      <trkpt lat="61.6275508795" lon="8.64473207854">
        <ele>1399.82</ele>
        <time>2012-08-05T15:31:42Z</time>
      </trkpt>
      <trkpt lat="61.6275266558" lon="8.64469377324">
        <ele>1399.82</ele>
        <time>2012-08-05T15:31:56Z</time>
      </trkpt>
      <trkpt lat="61.6274732631" lon="8.64465580322">
        <ele>1399.34</ele>
        <time>2012-08-05T15:32:08Z</time>
      </trkpt>
      <trkpt lat="61.6271970794" lon="8.64424643107">
        <ele>1400.3</ele>
        <time>2012-08-05T15:32:36Z</time>
      </trkpt>
      <trkpt lat="61.6270014457" lon="8.64393294789">
        <ele>1399.82</ele>
        <time>2012-08-05T15:32:57Z</time>
      </trkpt>
      <trkpt lat="61.6268797405" lon="8.64372281358">
        <ele>1400.78</ele>
        <time>2012-08-05T15:33:10Z</time>
      </trkpt>
      <trkpt lat="61.6268245038" lon="8.64368484356">
        <ele>1401.26</ele>
        <time>2012-08-05T15:33:14Z</time>
      </trkpt>
      <trkpt lat="61.626666002" lon="8.6433974281">
        <ele>1399.34</ele>
        <time>2012-08-05T15:33:32Z</time>
      </trkpt>
      <trkpt lat="61.6265285388" lon="8.64313381724">
        <ele>1398.86</ele>
        <time>2012-08-05T15:33:49Z</time>
      </trkpt>
      <trkpt lat="61.6264488269" lon="8.64290012978">
        <ele>1399.34</ele>
        <time>2012-08-05T15:34:04Z</time>
      </trkpt>
      <trkpt lat="61.6263705399" lon="8.642635094">
        <ele>1399.82</ele>
        <time>2012-08-05T15:34:18Z</time>
      </trkpt>
      <trkpt lat="61.6262780875" lon="8.64234273322">
        <ele>1399.34</ele>
        <time>2012-08-05T15:34:32Z</time>
      </trkpt>
      <trkpt lat="61.6261601541" lon="8.64204743877">
        <ele>1399.34</ele>
        <time>2012-08-05T15:34:47Z</time>
      </trkpt>
      <trkpt lat="61.626019422" lon="8.64173093811">
        <ele>1399.82</ele>
        <time>2012-08-05T15:35:02Z</time>
      </trkpt>
      <trkpt lat="61.6259186715" lon="8.64149708301">
        <ele>1400.3</ele>
        <time>2012-08-05T15:35:15Z</time>
      </trkpt>
      <trkpt lat="61.6257939488" lon="8.64118929952">
        <ele>1401.26</ele>
        <time>2012-08-05T15:35:31Z</time>
      </trkpt>
      <trkpt lat="61.6257320065" lon="8.6410143692">
        <ele>1401.26</ele>
        <time>2012-08-05T15:35:43Z</time>
      </trkpt>
      <trkpt lat="61.6256296635" lon="8.64073944278">
        <ele>1401.74</ele>
        <time>2012-08-05T15:35:58Z</time>
      </trkpt>
      <trkpt lat="61.625492787" lon="8.64044029266">
        <ele>1402.22</ele>
        <time>2012-08-05T15:36:13Z</time>
      </trkpt>
      <trkpt lat="61.6253948025" lon="8.64022194408">
        <ele>1403.18</ele>
        <time>2012-08-05T15:36:26Z</time>
      </trkpt>
      <trkpt lat="61.6253417451" lon="8.6399846524">
        <ele>1401.74</ele>
        <time>2012-08-05T15:36:37Z</time>
      </trkpt>
      <trkpt lat="61.625282485" lon="8.63968877122">
        <ele>1401.26</ele>
        <time>2012-08-05T15:36:49Z</time>
      </trkpt>
      <trkpt lat="61.6252331994" lon="8.63938316703">
        <ele>1399.82</ele>
        <time>2012-08-05T15:37:02Z</time>
      </trkpt>
      <trkpt lat="61.6251785494" lon="8.63912307657">
        <ele>1400.78</ele>
        <time>2012-08-05T15:37:15Z</time>
      </trkpt>
      <trkpt lat="61.6250891984" lon="8.63882124424">
        <ele>1400.78</ele>
        <time>2012-08-05T15:37:29Z</time>
      </trkpt>
      <trkpt lat="61.6250282619" lon="8.63851614296">
        <ele>1402.22</ele>
        <time>2012-08-05T15:37:44Z</time>
      </trkpt>
      <trkpt lat="61.6249493882" lon="8.63822026178">
        <ele>1402.22</ele>
        <time>2012-08-05T15:37:59Z</time>
      </trkpt>
      <trkpt lat="61.6249308642" lon="8.63812546246">
        <ele>1402.22</ele>
        <time>2012-08-05T15:38:02Z</time>
      </trkpt>
      <trkpt lat="61.624829527" lon="8.63780376501">
        <ele>1403.18</ele>
        <time>2012-08-05T15:38:18Z</time>
      </trkpt>
      <trkpt lat="61.6248023696" lon="8.63772455603">
        <ele>1402.7</ele>
        <time>2012-08-05T15:38:32Z</time>
      </trkpt>
      <trkpt lat="61.6247673333" lon="8.63758122548">
        <ele>1403.18</ele>
        <time>2012-08-05T15:38:53Z</time>
      </trkpt>
      <trkpt lat="61.6247322969" lon="8.63750704564">
        <ele>1402.7</ele>
        <time>2012-08-05T15:38:58Z</time>
      </trkpt>
      <trkpt lat="61.6246043891" lon="8.63731686026">
        <ele>1402.22</ele>
        <time>2012-08-05T15:39:12Z</time>
      </trkpt>
      <trkpt lat="61.6244912334" lon="8.63707864657">
        <ele>1401.26</ele>
        <time>2012-08-05T15:39:25Z</time>
      </trkpt>
      <trkpt lat="61.6243689414" lon="8.63685686141">
        <ele>1400.78</ele>
        <time>2012-08-05T15:39:38Z</time>
      </trkpt>
      <trkpt lat="61.6242413688" lon="8.63661889918">
        <ele>1400.78</ele>
        <time>2012-08-05T15:39:51Z</time>
      </trkpt>
      <trkpt lat="61.624153778" lon="8.63640423864">
        <ele>1400.78</ele>
        <time>2012-08-05T15:40:04Z</time>
      </trkpt>
      <trkpt lat="61.6240464896" lon="8.63614439964">
        <ele>1399.34</ele>
        <time>2012-08-05T15:40:17Z</time>
      </trkpt>
      <trkpt lat="61.6239483375" lon="8.63591406494">
        <ele>1397.41</ele>
        <time>2012-08-05T15:40:29Z</time>
      </trkpt>
      <trkpt lat="61.6239041649" lon="8.63579738885">
        <ele>1396.93</ele>
        <time>2012-08-05T15:40:41Z</time>
      </trkpt>
      <trkpt lat="61.6238186695" lon="8.63552430645">
        <ele>1396.93</ele>
        <time>2012-08-05T15:40:55Z</time>
      </trkpt>
      <trkpt lat="61.6238124669" lon="8.6354954727">
        <ele>1396.93</ele>
        <time>2012-08-05T15:40:56Z</time>
      </trkpt>
      <trkpt lat="61.6237816215" lon="8.63537251018">
        <ele>1395.97</ele>
        <time>2012-08-05T15:41:01Z</time>
      </trkpt>
      <trkpt lat="61.6237243731" lon="8.63506615162">
        <ele>1395.01</ele>
        <time>2012-08-05T15:41:14Z</time>
      </trkpt>
      <trkpt lat="61.6236998141" lon="8.6347141955">
        <ele>1395.01</ele>
        <time>2012-08-05T15:41:30Z</time>
      </trkpt>
      <trkpt lat="61.6236960422" lon="8.63429971039">
        <ele>1394.05</ele>
        <time>2012-08-05T15:41:47Z</time>
      </trkpt>
      <trkpt lat="61.6236294061" lon="8.63382286392">
        <ele>1394.53</ele>
        <time>2012-08-05T15:42:06Z</time>
      </trkpt>
      <trkpt lat="61.6235424858" lon="8.63354290836">
        <ele>1394.05</ele>
        <time>2012-08-05T15:42:19Z</time>
      </trkpt>
      <trkpt lat="61.6234346945" lon="8.63334107213">
        <ele>1394.05</ele>
        <time>2012-08-05T15:42:32Z</time>
      </trkpt>
      <trkpt lat="61.6234150808" lon="8.6333246436">
        <ele>1394.05</ele>
        <time>2012-08-05T15:42:34Z</time>
      </trkpt>
      <trkpt lat="61.6232645418" lon="8.6331753619">
        <ele>1394.05</ele>
        <time>2012-08-05T15:42:48Z</time>
      </trkpt>
      <trkpt lat="61.6231427528" lon="8.63318827003">
        <ele>1394.05</ele>
        <time>2012-08-05T15:43:01Z</time>
      </trkpt>
      <trkpt lat="61.6229976621" lon="8.63312741742">
        <ele>1393.57</ele>
        <time>2012-08-05T15:43:12Z</time>
      </trkpt>
      <trkpt lat="61.6229529865" lon="8.63307285123">
        <ele>1394.05</ele>
        <time>2012-08-05T15:43:16Z</time>
      </trkpt>
      <trkpt lat="61.6228156071" lon="8.63291149959">
        <ele>1394.05</ele>
        <time>2012-08-05T15:43:29Z</time>
      </trkpt>
      <trkpt lat="61.6226949077" lon="8.63267764449">
        <ele>1393.09</ele>
        <time>2012-08-05T15:43:41Z</time>
      </trkpt>
      <trkpt lat="61.6226275172" lon="8.63250405528">
        <ele>1394.05</ele>
        <time>2012-08-05T15:43:54Z</time>
      </trkpt>
      <trkpt lat="61.6225788184" lon="8.632557448">
        <ele>1392.13</ele>
        <time>2012-08-05T15:44:03Z</time>
      </trkpt>
      <trkpt lat="61.6225769743" lon="8.63256205805">
        <ele>1388.76</ele>
        <time>2012-08-05T15:44:04Z</time>
      </trkpt>
      <trkpt lat="61.6225667484" lon="8.63256373443">
        <ele>1394.53</ele>
        <time>2012-08-05T15:44:06Z</time>
      </trkpt>
      <trkpt lat="61.6225693468" lon="8.63256323151">
        <ele>1392.61</ele>
        <time>2012-08-05T15:44:07Z</time>
      </trkpt>
      <trkpt lat="61.6225766391" lon="8.63254546188">
        <ele>1391.65</ele>
        <time>2012-08-05T15:44:09Z</time>
      </trkpt>
      <trkpt lat="61.6225840151" lon="8.63255954348">
        <ele>1391.17</ele>
        <time>2012-08-05T15:44:16Z</time>
      </trkpt>
      <trkpt lat="61.6226005275" lon="8.63245292567">
        <ele>1393.09</ele>
        <time>2012-08-05T15:44:19Z</time>
      </trkpt>
      <trkpt lat="61.6226608772" lon="8.63256247714">
        <ele>1393.09</ele>
        <time>2012-08-05T15:44:29Z</time>
      </trkpt>
      <trkpt lat="61.6226552613" lon="8.63262617961">
        <ele>1394.05</ele>
        <time>2012-08-05T15:44:35Z</time>
      </trkpt>
      <trkpt lat="61.6226574406" lon="8.63257781602">
        <ele>1393.57</ele>
        <time>2012-08-05T15:44:57Z</time>
      </trkpt>
      <trkpt lat="61.6226903815" lon="8.63262944855">
        <ele>1393.57</ele>
        <time>2012-08-05T15:45:13Z</time>
      </trkpt>
      <trkpt lat="61.6226378269" lon="8.63271703944">
        <ele>1393.57</ele>
        <time>2012-08-05T15:45:21Z</time>
      </trkpt>
      <trkpt lat="61.6225504037" lon="8.6328899581">
        <ele>1394.05</ele>
        <time>2012-08-05T15:45:34Z</time>
      </trkpt>
      <trkpt lat="61.6225583665" lon="8.6329296045">
        <ele>1394.05</ele>
        <time>2012-08-05T15:45:55Z</time>
      </trkpt>
      <trkpt lat="61.6225556005" lon="8.63256281242">
        <ele>1393.57</ele>
        <time>2012-08-05T15:51:43Z</time>
      </trkpt>
      <trkpt lat="61.6225999407" lon="8.63261888735">
        <ele>1393.57</ele>
        <time>2012-08-05T15:51:48Z</time>
      </trkpt>
      <trkpt lat="61.6226418503" lon="8.63257228397">
        <ele>1390.68</ele>
        <time>2012-08-05T15:52:07Z</time>
      </trkpt>
      <trkpt lat="61.6226445325" lon="8.63257136196">
        <ele>1394.05</ele>
        <time>2012-08-05T15:52:08Z</time>
      </trkpt>
      <trkpt lat="61.6226454545" lon="8.63248595037">
        <ele>1393.09</ele>
        <time>2012-08-05T15:52:14Z</time>
      </trkpt>
      <trkpt lat="61.6226265114" lon="8.63251126371">
        <ele>1392.13</ele>
        <time>2012-08-05T15:52:16Z</time>
      </trkpt>
      <trkpt lat="61.6225918941" lon="8.63245694898">
        <ele>1392.13</ele>
        <time>2012-08-05T15:52:33Z</time>
      </trkpt>
      <trkpt lat="61.6225737054" lon="8.63245602697">
        <ele>1392.61</ele>
        <time>2012-08-05T15:52:45Z</time>
      </trkpt>
      <trkpt lat="61.6226749588" lon="8.6325001996">
        <ele>1395.49</ele>
        <time>2012-08-05T15:52:55Z</time>
      </trkpt>
      <trkpt lat="61.6226745397" lon="8.63253657706">
        <ele>1392.13</ele>
        <time>2012-08-05T15:53:02Z</time>
      </trkpt>
      <trkpt lat="61.6226834245" lon="8.63252350129">
        <ele>1394.53</ele>
        <time>2012-08-05T15:53:06Z</time>
      </trkpt>
      <trkpt lat="61.6226852685" lon="8.63252744079">
        <ele>1393.09</ele>
        <time>2012-08-05T15:53:08Z</time>
      </trkpt>
      <trkpt lat="61.6226624697" lon="8.63272835501">
        <ele>1395.01</ele>
        <time>2012-08-05T15:53:30Z</time>
      </trkpt>
      <trkpt lat="61.6226686724" lon="8.63274008967">
        <ele>1395.01</ele>
        <time>2012-08-05T15:53:32Z</time>
      </trkpt>
      <trkpt lat="61.6229821555" lon="8.63301493227">
        <ele>1395.01</ele>
        <time>2012-08-05T15:53:55Z</time>
      </trkpt>
    </trkseg>
  </trk>
</gpx>